<?xml version="1.0" encoding="UTF-8"?>
<gpx version="1.1" creator="Kurviger" xmlns="http://www.topografix.com/GPX/1/1" xmlns:xsi="http://www.w3.org/2001/XMLSchema-instance" xsi:schemaLocation="http://www.topografix.com/GPX/1/1 http://www.topografix.com/GPX/1/1/gpx.xsd http://www.garmin.com/xmlschemas/GpxExtensions/v3 http://www.garmin.com/xmlschemas/GpxExtensionsv3.xsd http://www.garmin.com/xmlschemas/TripExtensions/v1 http://www.garmin.com/xmlschemas/TripExtensionsv1.xsd" xmlns:gpxx="http://www.garmin.com/xmlschemas/GpxExtensions/v3" xmlns:trp="http://www.garmin.com/xmlschemas/TripExtensions/v1">
	<metadata>
		<name>Restaurant Schult, Dorsten - Hofcafé Hagedorn, Haltern am See</name>
		<copyright author="OpenStreetMap contributors"/>
		<link href="https://kurviger.com">
			<text>Kurviger.com GPX</text>
		</link>
		<time>2025-06-21T14:35:43.533Z</time>
	</metadata>
	<trk>
		<name>Restaurant Schult, Dorsten - Hofcafé Hagedorn, Haltern am See</name>
		<trkseg>
			<trkpt lat="51.65763" lon="6.90149">
				<ele>41.92</ele>
				<time>2025-06-21T14:35:43.532Z</time>
			</trkpt>
			<trkpt lat="51.65798" lon="6.90179">
				<ele>39.93</ele>
				<time>2025-06-21T14:35:55.829Z</time>
			</trkpt>
			<trkpt lat="51.65723" lon="6.90421">
				<ele>38.95</ele>
				<time>2025-06-21T14:36:44.466Z</time>
			</trkpt>
			<trkpt lat="51.65582" lon="6.90861">
				<ele>37.96</ele>
				<time>2025-06-21T14:37:59.129Z</time>
			</trkpt>
			<trkpt lat="51.65391" lon="6.91316">
				<ele>45.9</ele>
				<time>2025-06-21T14:39:02.415Z</time>
			</trkpt>
			<trkpt lat="51.6536" lon="6.91397">
				<ele>49.4</ele>
				<time>2025-06-21T14:39:11.495Z</time>
			</trkpt>
			<trkpt lat="51.65323" lon="6.91514">
				<ele>55.05</ele>
				<time>2025-06-21T14:39:23.180Z</time>
			</trkpt>
			<trkpt lat="51.65294" lon="6.91636">
				<ele>56.8</ele>
				<time>2025-06-21T14:39:33.867Z</time>
			</trkpt>
			<trkpt lat="51.65279" lon="6.9171">
				<ele>59.26</ele>
				<time>2025-06-21T14:39:39.808Z</time>
			</trkpt>
			<trkpt lat="51.65263" lon="6.9182">
				<ele>61.82</ele>
				<time>2025-06-21T14:39:47.881Z</time>
			</trkpt>
			<trkpt lat="51.65251" lon="6.91945">
				<ele>62.78</ele>
				<time>2025-06-21T14:39:56.177Z</time>
			</trkpt>
			<trkpt lat="51.65246" lon="6.92071">
				<ele>62.27</ele>
				<time>2025-06-21T14:40:03.711Z</time>
			</trkpt>
			<trkpt lat="51.65247" lon="6.92169">
				<ele>64.87</ele>
				<time>2025-06-21T14:40:09.067Z</time>
			</trkpt>
			<trkpt lat="51.65249" lon="6.92215">
				<ele>62.5</ele>
				<time>2025-06-21T14:40:11.443Z</time>
			</trkpt>
			<trkpt lat="51.6526" lon="6.92368">
				<ele>62.83</ele>
				<time>2025-06-21T14:40:18.743Z</time>
			</trkpt>
			<trkpt lat="51.6528" lon="6.9251">
				<ele>61</ele>
				<time>2025-06-21T14:40:24.784Z</time>
			</trkpt>
			<trkpt lat="51.65305" lon="6.92653">
				<ele>61.52</ele>
				<time>2025-06-21T14:40:30.144Z</time>
			</trkpt>
			<trkpt lat="51.6533" lon="6.92775">
				<ele>66.78</ele>
				<time>2025-06-21T14:40:34.170Z</time>
			</trkpt>
			<trkpt lat="51.65367" lon="6.92932">
				<ele>53.86</ele>
				<time>2025-06-21T14:40:38.644Z</time>
			</trkpt>
			<trkpt lat="51.65555" lon="6.93704">
				<ele>41.63</ele>
				<time>2025-06-21T14:40:50.383Z</time>
			</trkpt>
			<trkpt lat="51.65611" lon="6.93968">
				<ele>42</ele>
				<time>2025-06-21T14:40:51.622Z</time>
			</trkpt>
			<trkpt lat="51.65652" lon="6.94225">
				<ele>36.94</ele>
				<time>2025-06-21T14:40:52.117Z</time>
			</trkpt>
			<trkpt lat="51.65666" lon="6.94335">
				<ele>37</ele>
				<time>2025-06-21T14:40:52.208Z</time>
			</trkpt>
			<trkpt lat="51.65676" lon="6.94424">
				<ele>38.28</ele>
				<time>2025-06-21T14:40:52.255Z</time>
			</trkpt>
			<trkpt lat="51.65686" lon="6.94547">
				<ele>35.28</ele>
				<time>2025-06-21T14:40:52.308Z</time>
			</trkpt>
			<trkpt lat="51.65689" lon="6.94634">
				<ele>35</ele>
				<time>2025-06-21T14:40:52.353Z</time>
			</trkpt>
			<trkpt lat="51.6569" lon="6.94721">
				<ele>34.12</ele>
				<time>2025-06-21T14:40:52.418Z</time>
			</trkpt>
			<trkpt lat="51.65684" lon="6.95009">
				<ele>33</ele>
				<time>2025-06-21T14:40:52.919Z</time>
			</trkpt>
			<trkpt lat="51.65687" lon="6.95094">
				<ele>33.41</ele>
				<time>2025-06-21T14:40:53.195Z</time>
			</trkpt>
			<trkpt lat="51.65698" lon="6.95163">
				<ele>34.01</ele>
				<time>2025-06-21T14:40:53.486Z</time>
			</trkpt>
			<trkpt lat="51.65718" lon="6.95255">
				<ele>36.21</ele>
				<time>2025-06-21T14:40:53.983Z</time>
			</trkpt>
			<trkpt lat="51.65737" lon="6.95325">
				<ele>35.73</ele>
				<time>2025-06-21T14:40:54.462Z</time>
			</trkpt>
			<trkpt lat="51.65748" lon="6.95351">
				<ele>35.06</ele>
				<time>2025-06-21T14:40:54.685Z</time>
			</trkpt>
			<trkpt lat="51.65759" lon="6.95376">
				<ele>34.1</ele>
				<time>2025-06-21T14:40:54.917Z</time>
			</trkpt>
			<trkpt lat="51.65783" lon="6.95414">
				<ele>33</ele>
				<time>2025-06-21T14:40:55.364Z</time>
			</trkpt>
			<trkpt lat="51.65858" lon="6.95501">
				<ele>34.81</ele>
				<time>2025-06-21T14:40:56.861Z</time>
			</trkpt>
			<trkpt lat="51.65879" lon="6.95532">
				<ele>35.1</ele>
				<time>2025-06-21T14:40:57.407Z</time>
			</trkpt>
			<trkpt lat="51.65897" lon="6.95567">
				<ele>36</ele>
				<time>2025-06-21T14:40:57.991Z</time>
			</trkpt>
			<trkpt lat="51.65908" lon="6.95597">
				<ele>36.36</ele>
				<time>2025-06-21T14:40:58.469Z</time>
			</trkpt>
			<trkpt lat="51.65933" lon="6.95692">
				<ele>32.89</ele>
				<time>2025-06-21T14:41:00.042Z</time>
			</trkpt>
			<trkpt lat="51.65943" lon="6.95736">
				<ele>31.51</ele>
				<time>2025-06-21T14:41:00.839Z</time>
			</trkpt>
			<trkpt lat="51.65949" lon="6.95775">
				<ele>32.92</ele>
				<time>2025-06-21T14:41:01.565Z</time>
			</trkpt>
			<trkpt lat="51.65953" lon="6.95819">
				<ele>34.19</ele>
				<time>2025-06-21T14:41:02.417Z</time>
			</trkpt>
			<trkpt lat="51.65952" lon="6.95873">
				<ele>35.18</ele>
				<time>2025-06-21T14:41:03.521Z</time>
			</trkpt>
			<trkpt lat="51.65938" lon="6.96022">
				<ele>32.21</ele>
				<time>2025-06-21T14:41:07.026Z</time>
			</trkpt>
			<trkpt lat="51.65933" lon="6.96046">
				<ele>32.4</ele>
				<time>2025-06-21T14:41:07.679Z</time>
			</trkpt>
			<trkpt lat="51.65923" lon="6.96078">
				<ele>33.57</ele>
				<time>2025-06-21T14:41:08.637Z</time>
			</trkpt>
			<trkpt lat="51.65892" lon="6.96165">
				<ele>35.91</ele>
				<time>2025-06-21T14:41:11.533Z</time>
			</trkpt>
			<trkpt lat="51.65885" lon="6.9621">
				<ele>35.4</ele>
				<time>2025-06-21T14:41:12.981Z</time>
			</trkpt>
			<trkpt lat="51.65883" lon="6.96253">
				<ele>34.97</ele>
				<time>2025-06-21T14:41:14.392Z</time>
			</trkpt>
			<trkpt lat="51.65893" lon="6.96419">
				<ele>34.93</ele>
				<time>2025-06-21T14:41:20.458Z</time>
			</trkpt>
			<trkpt lat="51.659" lon="6.96521">
				<ele>35.59</ele>
				<time>2025-06-21T14:41:24.698Z</time>
			</trkpt>
			<trkpt lat="51.65908" lon="6.96603">
				<ele>35.73</ele>
				<time>2025-06-21T14:41:28.426Z</time>
			</trkpt>
			<trkpt lat="51.65908" lon="6.9662">
				<ele>36</ele>
				<time>2025-06-21T14:41:29.224Z</time>
			</trkpt>
			<trkpt lat="51.65905" lon="6.96664">
				<ele>36.38</ele>
				<time>2025-06-21T14:41:31.356Z</time>
			</trkpt>
			<trkpt lat="51.65896" lon="6.96676">
				<ele>36.64</ele>
				<time>2025-06-21T14:41:32.287Z</time>
			</trkpt>
			<trkpt lat="51.65874" lon="6.96719">
				<ele>36.04</ele>
				<time>2025-06-21T14:41:35.131Z</time>
			</trkpt>
			<trkpt lat="51.65841" lon="6.96775">
				<ele>34.81</ele>
				<time>2025-06-21T14:41:39.293Z</time>
			</trkpt>
			<trkpt lat="51.65837" lon="6.9679">
				<ele>34.8</ele>
				<time>2025-06-21T14:41:40.206Z</time>
			</trkpt>
			<trkpt lat="51.65829" lon="6.96801">
				<ele>35</ele>
				<time>2025-06-21T14:41:41.167Z</time>
			</trkpt>
			<trkpt lat="51.65868" lon="6.96851">
				<ele>32</ele>
				<time>2025-06-21T14:41:45.891Z</time>
			</trkpt>
			<trkpt lat="51.65895" lon="6.96881">
				<ele>31.11</ele>
				<time>2025-06-21T14:41:49.150Z</time>
			</trkpt>
			<trkpt lat="51.65945" lon="6.96926">
				<ele>32.36</ele>
				<time>2025-06-21T14:41:55.112Z</time>
			</trkpt>
			<trkpt lat="51.65971" lon="6.96939">
				<ele>32.99</ele>
				<time>2025-06-21T14:41:58.061Z</time>
			</trkpt>
			<trkpt lat="51.65999" lon="6.9695">
				<ele>32.02</ele>
				<time>2025-06-21T14:42:01.259Z</time>
			</trkpt>
			<trkpt lat="51.66022" lon="6.96955">
				<ele>31.51</ele>
				<time>2025-06-21T14:42:03.891Z</time>
			</trkpt>
			<trkpt lat="51.66035" lon="6.96956">
				<ele>31.44</ele>
				<time>2025-06-21T14:42:05.387Z</time>
			</trkpt>
			<trkpt lat="51.66072" lon="6.96947">
				<ele>30.48</ele>
				<time>2025-06-21T14:42:09.771Z</time>
			</trkpt>
			<trkpt lat="51.66089" lon="6.96938">
				<ele>30.16</ele>
				<time>2025-06-21T14:42:11.908Z</time>
			</trkpt>
			<trkpt lat="51.66103" lon="6.96927">
				<ele>30.4</ele>
				<time>2025-06-21T14:42:13.789Z</time>
			</trkpt>
			<trkpt lat="51.66126" lon="6.96902">
				<ele>31.15</ele>
				<time>2025-06-21T14:42:17.186Z</time>
			</trkpt>
			<trkpt lat="51.66147" lon="6.96868">
				<ele>32.56</ele>
				<time>2025-06-21T14:42:20.894Z</time>
			</trkpt>
			<trkpt lat="51.66192" lon="6.96788">
				<ele>34.07</ele>
				<time>2025-06-21T14:42:29.463Z</time>
			</trkpt>
			<trkpt lat="51.66238" lon="6.96711">
				<ele>33.38</ele>
				<time>2025-06-21T14:42:38.220Z</time>
			</trkpt>
			<trkpt lat="51.66275" lon="6.9664">
				<ele>34.02</ele>
				<time>2025-06-21T14:42:46.006Z</time>
			</trkpt>
			<trkpt lat="51.66289" lon="6.96617">
				<ele>34</ele>
				<time>2025-06-21T14:42:48.749Z</time>
			</trkpt>
			<trkpt lat="51.66311" lon="6.96591">
				<ele>34.93</ele>
				<time>2025-06-21T14:42:52.520Z</time>
			</trkpt>
			<trkpt lat="51.66331" lon="6.96573">
				<ele>35.93</ele>
				<time>2025-06-21T14:42:55.709Z</time>
			</trkpt>
			<trkpt lat="51.6635" lon="6.96562">
				<ele>36.47</ele>
				<time>2025-06-21T14:42:58.537Z</time>
			</trkpt>
			<trkpt lat="51.66369" lon="6.96557">
				<ele>36.65</ele>
				<time>2025-06-21T14:43:01.246Z</time>
			</trkpt>
			<trkpt lat="51.6655" lon="6.96563">
				<ele>31.53</ele>
				<time>2025-06-21T14:43:27.179Z</time>
			</trkpt>
			<trkpt lat="51.66589" lon="6.96567">
				<ele>31</ele>
				<time>2025-06-21T14:43:32.841Z</time>
			</trkpt>
			<trkpt lat="51.66619" lon="6.96575">
				<ele>31.3</ele>
				<time>2025-06-21T14:43:37.251Z</time>
			</trkpt>
			<trkpt lat="51.66649" lon="6.96588">
				<ele>32.16</ele>
				<time>2025-06-21T14:43:41.757Z</time>
			</trkpt>
			<trkpt lat="51.66861" lon="6.96703">
				<ele>29.34</ele>
				<time>2025-06-21T14:44:13.851Z</time>
			</trkpt>
			<trkpt lat="51.66934" lon="6.96741">
				<ele>32.21</ele>
				<time>2025-06-21T14:44:24.555Z</time>
			</trkpt>
			<trkpt lat="51.66934" lon="6.96761">
				<ele>31.59</ele>
				<time>2025-06-21T14:44:26.264Z</time>
			</trkpt>
			<trkpt lat="51.66937" lon="6.96807">
				<ele>30.94</ele>
				<time>2025-06-21T14:44:30.192Z</time>
			</trkpt>
			<trkpt lat="51.66977" lon="6.97207">
				<ele>33.77</ele>
				<time>2025-06-21T14:45:03.509Z</time>
			</trkpt>
			<trkpt lat="51.67" lon="6.97447">
				<ele>34</ele>
				<time>2025-06-21T14:45:22.989Z</time>
			</trkpt>
			<trkpt lat="51.67011" lon="6.9755">
				<ele>31.83</ele>
				<time>2025-06-21T14:45:31.372Z</time>
			</trkpt>
			<trkpt lat="51.67015" lon="6.97597">
				<ele>31.22</ele>
				<time>2025-06-21T14:45:35.189Z</time>
			</trkpt>
			<trkpt lat="51.67007" lon="6.97603">
				<ele>31.2</ele>
				<time>2025-06-21T14:45:36.335Z</time>
			</trkpt>
			<trkpt lat="51.67003" lon="6.97611">
				<ele>31</ele>
				<time>2025-06-21T14:45:37.164Z</time>
			</trkpt>
			<trkpt lat="51.67004" lon="6.97624">
				<ele>31</ele>
				<time>2025-06-21T14:45:38.221Z</time>
			</trkpt>
			<trkpt lat="51.67006" lon="6.9763">
				<ele>31</ele>
				<time>2025-06-21T14:45:38.772Z</time>
			</trkpt>
			<trkpt lat="51.67013" lon="6.97636">
				<ele>31</ele>
				<time>2025-06-21T14:45:39.804Z</time>
			</trkpt>
			<trkpt lat="51.67018" lon="6.97637">
				<ele>31</ele>
				<time>2025-06-21T14:45:40.461Z</time>
			</trkpt>
			<trkpt lat="51.67059" lon="6.98074">
				<ele>36</ele>
				<time>2025-06-21T14:46:16.558Z</time>
			</trkpt>
			<trkpt lat="51.67067" lon="6.98116">
				<ele>37</ele>
				<time>2025-06-21T14:46:20.173Z</time>
			</trkpt>
			<trkpt lat="51.67072" lon="6.98132">
				<ele>37</ele>
				<time>2025-06-21T14:46:21.648Z</time>
			</trkpt>
			<trkpt lat="51.67066" lon="6.98139">
				<ele>36.99</ele>
				<time>2025-06-21T14:46:22.631Z</time>
			</trkpt>
			<trkpt lat="51.67064" lon="6.9815">
				<ele>36.86</ele>
				<time>2025-06-21T14:46:23.575Z</time>
			</trkpt>
			<trkpt lat="51.67067" lon="6.98162">
				<ele>36.64</ele>
				<time>2025-06-21T14:46:24.641Z</time>
			</trkpt>
			<trkpt lat="51.67074" lon="6.98168">
				<ele>36.33</ele>
				<time>2025-06-21T14:46:25.694Z</time>
			</trkpt>
			<trkpt lat="51.67071" lon="6.98191">
				<ele>36.42</ele>
				<time>2025-06-21T14:46:27.631Z</time>
			</trkpt>
			<trkpt lat="51.67072" lon="6.9821">
				<ele>36.28</ele>
				<time>2025-06-21T14:46:29.202Z</time>
			</trkpt>
			<trkpt lat="51.67158" lon="6.99107">
				<ele>34.44</ele>
				<time>2025-06-21T14:47:43.297Z</time>
			</trkpt>
			<trkpt lat="51.67164" lon="6.99147">
				<ele>34.34</ele>
				<time>2025-06-21T14:47:46.577Z</time>
			</trkpt>
			<trkpt lat="51.67158" lon="6.99154">
				<ele>34.52</ele>
				<time>2025-06-21T14:47:47.527Z</time>
			</trkpt>
			<trkpt lat="51.67155" lon="6.99164">
				<ele>34.58</ele>
				<time>2025-06-21T14:47:48.410Z</time>
			</trkpt>
			<trkpt lat="51.67155" lon="6.9917">
				<ele>34.64</ele>
				<time>2025-06-21T14:47:48.886Z</time>
			</trkpt>
			<trkpt lat="51.67159" lon="6.99185">
				<ele>34.91</ele>
				<time>2025-06-21T14:47:50.181Z</time>
			</trkpt>
			<trkpt lat="51.67166" lon="6.9919">
				<ele>34.99</ele>
				<time>2025-06-21T14:47:51.160Z</time>
			</trkpt>
			<trkpt lat="51.67173" lon="6.99189">
				<ele>35.22</ele>
				<time>2025-06-21T14:47:52.056Z</time>
			</trkpt>
			<trkpt lat="51.6718" lon="6.99226">
				<ele>36.5</ele>
				<time>2025-06-21T14:47:55.112Z</time>
			</trkpt>
			<trkpt lat="51.67188" lon="6.99253">
				<ele>36.79</ele>
				<time>2025-06-21T14:47:57.469Z</time>
			</trkpt>
			<trkpt lat="51.67308" lon="6.99544">
				<ele>32.67</ele>
				<time>2025-06-21T14:48:24.576Z</time>
			</trkpt>
			<trkpt lat="51.67519" lon="7.00052">
				<ele>35.9</ele>
				<time>2025-06-21T14:49:10.224Z</time>
			</trkpt>
			<trkpt lat="51.68284" lon="7.01887">
				<ele>45.95</ele>
				<time>2025-06-21T14:51:39.293Z</time>
			</trkpt>
			<trkpt lat="51.68374" lon="7.02091">
				<ele>44.44</ele>
				<time>2025-06-21T14:51:54.867Z</time>
			</trkpt>
			<trkpt lat="51.68449" lon="7.02267">
				<ele>37.84</ele>
				<time>2025-06-21T14:52:07.979Z</time>
			</trkpt>
			<trkpt lat="51.68551" lon="7.02522">
				<ele>45</ele>
				<time>2025-06-21T14:52:26.358Z</time>
			</trkpt>
			<trkpt lat="51.6895" lon="7.03481">
				<ele>36.92</ele>
				<time>2025-06-21T14:53:33.990Z</time>
			</trkpt>
			<trkpt lat="51.68961" lon="7.03513">
				<ele>36.39</ele>
				<time>2025-06-21T14:53:36.082Z</time>
			</trkpt>
			<trkpt lat="51.68974" lon="7.0357">
				<ele>36</ele>
				<time>2025-06-21T14:53:39.549Z</time>
			</trkpt>
			<trkpt lat="51.69049" lon="7.03904">
				<ele>36</ele>
				<time>2025-06-21T14:53:59.694Z</time>
			</trkpt>
			<trkpt lat="51.69054" lon="7.03948">
				<ele>36.15</ele>
				<time>2025-06-21T14:54:02.216Z</time>
			</trkpt>
			<trkpt lat="51.69055" lon="7.03999">
				<ele>37.97</ele>
				<time>2025-06-21T14:54:05.088Z</time>
			</trkpt>
			<trkpt lat="51.69053" lon="7.04099">
				<ele>40.76</ele>
				<time>2025-06-21T14:54:10.710Z</time>
			</trkpt>
			<trkpt lat="51.69054" lon="7.04141">
				<ele>40.81</ele>
				<time>2025-06-21T14:54:13.067Z</time>
			</trkpt>
			<trkpt lat="51.6906" lon="7.04175">
				<ele>39.69</ele>
				<time>2025-06-21T14:54:15.048Z</time>
			</trkpt>
			<trkpt lat="51.69066" lon="7.04191">
				<ele>39.09</ele>
				<time>2025-06-21T14:54:16.095Z</time>
			</trkpt>
			<trkpt lat="51.69079" lon="7.04222">
				<ele>37.99</ele>
				<time>2025-06-21T14:54:18.189Z</time>
			</trkpt>
			<trkpt lat="51.69371" lon="7.0474">
				<ele>39</ele>
				<time>2025-06-21T14:54:57.079Z</time>
			</trkpt>
			<trkpt lat="51.69385" lon="7.04764">
				<ele>39.36</ele>
				<time>2025-06-21T14:54:58.899Z</time>
			</trkpt>
			<trkpt lat="51.69397" lon="7.04777">
				<ele>39.68</ele>
				<time>2025-06-21T14:55:00.186Z</time>
			</trkpt>
			<trkpt lat="51.69432" lon="7.04795">
				<ele>39.07</ele>
				<time>2025-06-21T14:55:03.455Z</time>
			</trkpt>
			<trkpt lat="51.69471" lon="7.04825">
				<ele>39.72</ele>
				<time>2025-06-21T14:55:07.299Z</time>
			</trkpt>
			<trkpt lat="51.69496" lon="7.04851">
				<ele>40.35</ele>
				<time>2025-06-21T14:55:09.943Z</time>
			</trkpt>
			<trkpt lat="51.69524" lon="7.04893">
				<ele>42.28</ele>
				<time>2025-06-21T14:55:13.340Z</time>
			</trkpt>
			<trkpt lat="51.69543" lon="7.04933">
				<ele>42.47</ele>
				<time>2025-06-21T14:55:16.114Z</time>
			</trkpt>
			<trkpt lat="51.69564" lon="7.0499">
				<ele>41.16</ele>
				<time>2025-06-21T14:55:19.763Z</time>
			</trkpt>
			<trkpt lat="51.69577" lon="7.05052">
				<ele>39.94</ele>
				<time>2025-06-21T14:55:23.363Z</time>
			</trkpt>
			<trkpt lat="51.69582" lon="7.05086">
				<ele>39.15</ele>
				<time>2025-06-21T14:55:25.285Z</time>
			</trkpt>
			<trkpt lat="51.69595" lon="7.05189">
				<ele>37.46</ele>
				<time>2025-06-21T14:55:31.064Z</time>
			</trkpt>
			<trkpt lat="51.69602" lon="7.05228">
				<ele>38.51</ele>
				<time>2025-06-21T14:55:33.295Z</time>
			</trkpt>
			<trkpt lat="51.69615" lon="7.05265">
				<ele>40.05</ele>
				<time>2025-06-21T14:55:35.633Z</time>
			</trkpt>
			<trkpt lat="51.69823" lon="7.05733">
				<ele>38.34</ele>
				<time>2025-06-21T14:56:07.295Z</time>
			</trkpt>
			<trkpt lat="51.6984" lon="7.05782">
				<ele>38.73</ele>
				<time>2025-06-21T14:56:10.387Z</time>
			</trkpt>
			<trkpt lat="51.69932" lon="7.06086">
				<ele>38.96</ele>
				<time>2025-06-21T14:56:29.052Z</time>
			</trkpt>
			<trkpt lat="51.6994" lon="7.06134">
				<ele>37.85</ele>
				<time>2025-06-21T14:56:31.801Z</time>
			</trkpt>
			<trkpt lat="51.69941" lon="7.06163">
				<ele>37.99</ele>
				<time>2025-06-21T14:56:33.408Z</time>
			</trkpt>
			<trkpt lat="51.69935" lon="7.06349">
				<ele>36.86</ele>
				<time>2025-06-21T14:56:43.732Z</time>
			</trkpt>
			<trkpt lat="51.69936" lon="7.06393">
				<ele>38.11</ele>
				<time>2025-06-21T14:56:46.177Z</time>
			</trkpt>
			<trkpt lat="51.69945" lon="7.06447">
				<ele>41.02</ele>
				<time>2025-06-21T14:56:49.286Z</time>
			</trkpt>
			<trkpt lat="51.70043" lon="7.06853">
				<ele>38.74</ele>
				<time>2025-06-21T14:57:13.635Z</time>
			</trkpt>
			<trkpt lat="51.70075" lon="7.06961">
				<ele>38.67</ele>
				<time>2025-06-21T14:57:20.370Z</time>
			</trkpt>
			<trkpt lat="51.70137" lon="7.07141">
				<ele>35.1</ele>
				<time>2025-06-21T14:57:32.010Z</time>
			</trkpt>
			<trkpt lat="51.70231" lon="7.07404">
				<ele>39.14</ele>
				<time>2025-06-21T14:57:49.308Z</time>
			</trkpt>
			<trkpt lat="51.70254" lon="7.07472">
				<ele>37.98</ele>
				<time>2025-06-21T14:57:53.750Z</time>
			</trkpt>
			<trkpt lat="51.70384" lon="7.07901">
				<ele>35.15</ele>
				<time>2025-06-21T14:58:21.424Z</time>
			</trkpt>
			<trkpt lat="51.70413" lon="7.07975">
				<ele>36.99</ele>
				<time>2025-06-21T14:58:26.557Z</time>
			</trkpt>
			<trkpt lat="51.7043" lon="7.08011">
				<ele>38.1</ele>
				<time>2025-06-21T14:58:29.218Z</time>
			</trkpt>
			<trkpt lat="51.70459" lon="7.08053">
				<ele>40.74</ele>
				<time>2025-06-21T14:58:32.924Z</time>
			</trkpt>
			<trkpt lat="51.70477" lon="7.08077">
				<ele>40.41</ele>
				<time>2025-06-21T14:58:35.150Z</time>
			</trkpt>
			<trkpt lat="51.70803" lon="7.08423">
				<ele>31.82</ele>
				<time>2025-06-21T14:59:12.943Z</time>
			</trkpt>
			<trkpt lat="51.7091" lon="7.08539">
				<ele>32.56</ele>
				<time>2025-06-21T14:59:25.701Z</time>
			</trkpt>
			<trkpt lat="51.70922" lon="7.08553">
				<ele>32.06</ele>
				<time>2025-06-21T14:59:27.176Z</time>
			</trkpt>
			<trkpt lat="51.70939" lon="7.08578">
				<ele>32</ele>
				<time>2025-06-21T14:59:29.470Z</time>
			</trkpt>
			<trkpt lat="51.7096" lon="7.08618">
				<ele>33.58</ele>
				<time>2025-06-21T14:59:32.720Z</time>
			</trkpt>
			<trkpt lat="51.70975" lon="7.08658">
				<ele>33.96</ele>
				<time>2025-06-21T14:59:35.626Z</time>
			</trkpt>
			<trkpt lat="51.71135" lon="7.09243">
				<ele>33.12</ele>
				<time>2025-06-21T15:00:16.190Z</time>
			</trkpt>
			<trkpt lat="51.71155" lon="7.09311">
				<ele>33.22</ele>
				<time>2025-06-21T15:00:21.071Z</time>
			</trkpt>
			<trkpt lat="51.7117" lon="7.0934">
				<ele>34.14</ele>
				<time>2025-06-21T15:00:23.530Z</time>
			</trkpt>
			<trkpt lat="51.71182" lon="7.09355">
				<ele>34.55</ele>
				<time>2025-06-21T15:00:25.127Z</time>
			</trkpt>
			<trkpt lat="51.71194" lon="7.09367">
				<ele>35.23</ele>
				<time>2025-06-21T15:00:26.615Z</time>
			</trkpt>
			<trkpt lat="51.71493" lon="7.09506">
				<ele>44.77</ele>
				<time>2025-06-21T15:00:59.996Z</time>
			</trkpt>
			<trkpt lat="51.7153" lon="7.09517">
				<ele>44.1</ele>
				<time>2025-06-21T15:01:04.110Z</time>
			</trkpt>
			<trkpt lat="51.71545" lon="7.09516">
				<ele>44.62</ele>
				<time>2025-06-21T15:01:05.758Z</time>
			</trkpt>
			<trkpt lat="51.71569" lon="7.09506">
				<ele>44.51</ele>
				<time>2025-06-21T15:01:08.485Z</time>
			</trkpt>
			<trkpt lat="51.71583" lon="7.09495">
				<ele>44.15</ele>
				<time>2025-06-21T15:01:10.203Z</time>
			</trkpt>
			<trkpt lat="51.71593" lon="7.09485">
				<ele>44.51</ele>
				<time>2025-06-21T15:01:11.504Z</time>
			</trkpt>
			<trkpt lat="51.71645" lon="7.09407">
				<ele>46</ele>
				<time>2025-06-21T15:01:19.412Z</time>
			</trkpt>
			<trkpt lat="51.71782" lon="7.09219">
				<ele>45.93</ele>
				<time>2025-06-21T15:01:39.994Z</time>
			</trkpt>
			<trkpt lat="51.71894" lon="7.09043">
				<ele>51.64</ele>
				<time>2025-06-21T15:01:58.737Z</time>
			</trkpt>
			<trkpt lat="51.71931" lon="7.08994">
				<ele>51.98</ele>
				<time>2025-06-21T15:02:04.671Z</time>
			</trkpt>
			<trkpt lat="51.72015" lon="7.08902">
				<ele>50</ele>
				<time>2025-06-21T15:02:17.567Z</time>
			</trkpt>
			<trkpt lat="51.72065" lon="7.08851">
				<ele>49.02</ele>
				<time>2025-06-21T15:02:25.223Z</time>
			</trkpt>
			<trkpt lat="51.72092" lon="7.08828">
				<ele>49.15</ele>
				<time>2025-06-21T15:02:29.199Z</time>
			</trkpt>
			<trkpt lat="51.72111" lon="7.08815">
				<ele>49.35</ele>
				<time>2025-06-21T15:02:31.893Z</time>
			</trkpt>
			<trkpt lat="51.72137" lon="7.08803">
				<ele>49</ele>
				<time>2025-06-21T15:02:35.428Z</time>
			</trkpt>
			<trkpt lat="51.72189" lon="7.0879">
				<ele>49</ele>
				<time>2025-06-21T15:02:42.308Z</time>
			</trkpt>
			<trkpt lat="51.7221" lon="7.08788">
				<ele>49</ele>
				<time>2025-06-21T15:02:45.054Z</time>
			</trkpt>
			<trkpt lat="51.72242" lon="7.08791">
				<ele>49.74</ele>
				<time>2025-06-21T15:02:49.228Z</time>
			</trkpt>
			<trkpt lat="51.7228" lon="7.08804">
				<ele>49.88</ele>
				<time>2025-06-21T15:02:54.262Z</time>
			</trkpt>
			<trkpt lat="51.72333" lon="7.08832">
				<ele>49</ele>
				<time>2025-06-21T15:03:01.422Z</time>
			</trkpt>
			<trkpt lat="51.72374" lon="7.0885">
				<ele>49</ele>
				<time>2025-06-21T15:03:06.808Z</time>
			</trkpt>
			<trkpt lat="51.72419" lon="7.08862">
				<ele>51.24</ele>
				<time>2025-06-21T15:03:12.504Z</time>
			</trkpt>
			<trkpt lat="51.72471" lon="7.08868">
				<ele>55.88</ele>
				<time>2025-06-21T15:03:18.885Z</time>
			</trkpt>
			<trkpt lat="51.72455" lon="7.10188">
				<ele>56.56</ele>
				<time>2025-06-21T15:04:42.682Z</time>
			</trkpt>
			<trkpt lat="51.72559" lon="7.10285">
				<ele>63.06</ele>
				<time>2025-06-21T15:04:53.454Z</time>
			</trkpt>
			<trkpt lat="51.72602" lon="7.10317">
				<ele>61.07</ele>
				<time>2025-06-21T15:04:57.649Z</time>
			</trkpt>
			<trkpt lat="51.72693" lon="7.10376">
				<ele>66.57</ele>
				<time>2025-06-21T15:05:06.250Z</time>
			</trkpt>
			<trkpt lat="51.72766" lon="7.10413">
				<ele>71.58</ele>
				<time>2025-06-21T15:05:12.881Z</time>
			</trkpt>
			<trkpt lat="51.73211" lon="7.10623">
				<ele>78.84</ele>
				<time>2025-06-21T15:05:51.691Z</time>
			</trkpt>
			<trkpt lat="51.7329" lon="7.10652">
				<ele>76.26</ele>
				<time>2025-06-21T15:05:58.257Z</time>
			</trkpt>
			<trkpt lat="51.73616" lon="7.10762">
				<ele>72.46</ele>
				<time>2025-06-21T15:06:24.671Z</time>
			</trkpt>
			<trkpt lat="51.73688" lon="7.10785">
				<ele>72</ele>
				<time>2025-06-21T15:06:30.381Z</time>
			</trkpt>
			<trkpt lat="51.73749" lon="7.10799">
				<ele>72</ele>
				<time>2025-06-21T15:06:35.146Z</time>
			</trkpt>
			<trkpt lat="51.73815" lon="7.10805">
				<ele>72.37</ele>
				<time>2025-06-21T15:06:40.232Z</time>
			</trkpt>
			<trkpt lat="51.73886" lon="7.10803">
				<ele>74.92</ele>
				<time>2025-06-21T15:06:45.667Z</time>
			</trkpt>
			<trkpt lat="51.7463" lon="7.10684">
				<ele>87.59</ele>
				<time>2025-06-21T15:07:41.521Z</time>
			</trkpt>
			<trkpt lat="51.74755" lon="7.10673">
				<ele>88.96</ele>
				<time>2025-06-21T15:07:50.719Z</time>
			</trkpt>
			<trkpt lat="51.74828" lon="7.1067">
				<ele>89.86</ele>
				<time>2025-06-21T15:07:56.076Z</time>
			</trkpt>
			<trkpt lat="51.75242" lon="7.10668">
				<ele>115.47</ele>
				<time>2025-06-21T15:08:26.433Z</time>
			</trkpt>
			<trkpt lat="51.75342" lon="7.10672">
				<ele>118.01</ele>
				<time>2025-06-21T15:08:33.790Z</time>
			</trkpt>
			<trkpt lat="51.75757" lon="7.10747">
				<ele>122</ele>
				<time>2025-06-21T15:09:04.773Z</time>
			</trkpt>
			<trkpt lat="51.75831" lon="7.10768">
				<ele>124.17</ele>
				<time>2025-06-21T15:09:10.413Z</time>
			</trkpt>
			<trkpt lat="51.75982" lon="7.10791">
				<ele>128.21</ele>
				<time>2025-06-21T15:09:21.876Z</time>
			</trkpt>
			<trkpt lat="51.76219" lon="7.10784">
				<ele>129.75</ele>
				<time>2025-06-21T15:09:40.042Z</time>
			</trkpt>
			<trkpt lat="51.77089" lon="7.10887">
				<ele>146.29</ele>
				<time>2025-06-21T15:10:50.572Z</time>
			</trkpt>
			<trkpt lat="51.77122" lon="7.10888">
				<ele>147.44</ele>
				<time>2025-06-21T15:10:53.384Z</time>
			</trkpt>
			<trkpt lat="51.77155" lon="7.10885">
				<ele>148.11</ele>
				<time>2025-06-21T15:10:56.211Z</time>
			</trkpt>
			<trkpt lat="51.77201" lon="7.10875">
				<ele>146.25</ele>
				<time>2025-06-21T15:11:00.203Z</time>
			</trkpt>
			<trkpt lat="51.77251" lon="7.10853">
				<ele>145</ele>
				<time>2025-06-21T15:11:04.690Z</time>
			</trkpt>
			<trkpt lat="51.77292" lon="7.10828">
				<ele>144.32</ele>
				<time>2025-06-21T15:11:08.508Z</time>
			</trkpt>
			<trkpt lat="51.77324" lon="7.10804">
				<ele>142.3</ele>
				<time>2025-06-21T15:11:11.600Z</time>
			</trkpt>
			<trkpt lat="51.77411" lon="7.11037">
				<ele>146.32</ele>
				<time>2025-06-21T15:11:26.561Z</time>
			</trkpt>
			<trkpt lat="51.77421" lon="7.11065">
				<ele>145.64</ele>
				<time>2025-06-21T15:11:28.360Z</time>
			</trkpt>
			<trkpt lat="51.77428" lon="7.11094">
				<ele>144.59</ele>
				<time>2025-06-21T15:11:30.097Z</time>
			</trkpt>
			<trkpt lat="51.77456" lon="7.11276">
				<ele>136.48</ele>
				<time>2025-06-21T15:11:40.646Z</time>
			</trkpt>
			<trkpt lat="51.77501" lon="7.11471">
				<ele>131.17</ele>
				<time>2025-06-21T15:11:52.519Z</time>
			</trkpt>
			<trkpt lat="51.7751" lon="7.1152">
				<ele>127.7</ele>
				<time>2025-06-21T15:11:55.460Z</time>
			</trkpt>
			<trkpt lat="51.7751" lon="7.11562">
				<ele>126</ele>
				<time>2025-06-21T15:11:57.884Z</time>
			</trkpt>
			<trkpt lat="51.77497" lon="7.11683">
				<ele>126.12</ele>
				<time>2025-06-21T15:12:05.008Z</time>
			</trkpt>
			<trkpt lat="51.77484" lon="7.11843">
				<ele>127.43</ele>
				<time>2025-06-21T15:12:14.448Z</time>
			</trkpt>
			<trkpt lat="51.77485" lon="7.11892">
				<ele>126.03</ele>
				<time>2025-06-21T15:12:17.332Z</time>
			</trkpt>
			<trkpt lat="51.77489" lon="7.11929">
				<ele>126.03</ele>
				<time>2025-06-21T15:12:19.548Z</time>
			</trkpt>
			<trkpt lat="51.77511" lon="7.12033">
				<ele>123.62</ele>
				<time>2025-06-21T15:12:26.055Z</time>
			</trkpt>
			<trkpt lat="51.77538" lon="7.12145">
				<ele>119.83</ele>
				<time>2025-06-21T15:12:33.213Z</time>
			</trkpt>
			<trkpt lat="51.77547" lon="7.12173">
				<ele>119.05</ele>
				<time>2025-06-21T15:12:35.098Z</time>
			</trkpt>
			<trkpt lat="51.77557" lon="7.12199">
				<ele>119.24</ele>
				<time>2025-06-21T15:12:36.931Z</time>
			</trkpt>
			<trkpt lat="51.77628" lon="7.12314">
				<ele>121.95</ele>
				<time>2025-06-21T15:12:46.695Z</time>
			</trkpt>
			<trkpt lat="51.77779" lon="7.12776">
				<ele>97.99</ele>
				<time>2025-06-21T15:13:18.520Z</time>
			</trkpt>
			<trkpt lat="51.77869" lon="7.12995">
				<ele>104.07</ele>
				<time>2025-06-21T15:13:34.732Z</time>
			</trkpt>
			<trkpt lat="51.77886" lon="7.1308">
				<ele>97.25</ele>
				<time>2025-06-21T15:13:40.264Z</time>
			</trkpt>
			<trkpt lat="51.77903" lon="7.13178">
				<ele>93.45</ele>
				<time>2025-06-21T15:13:46.580Z</time>
			</trkpt>
			<trkpt lat="51.77904" lon="7.13202">
				<ele>93</ele>
				<time>2025-06-21T15:13:48.075Z</time>
			</trkpt>
			<trkpt lat="51.77902" lon="7.13227">
				<ele>92.4</ele>
				<time>2025-06-21T15:13:49.642Z</time>
			</trkpt>
			<trkpt lat="51.77894" lon="7.13279">
				<ele>91.62</ele>
				<time>2025-06-21T15:13:52.975Z</time>
			</trkpt>
			<trkpt lat="51.77886" lon="7.13339">
				<ele>91.07</ele>
				<time>2025-06-21T15:13:56.797Z</time>
			</trkpt>
			<trkpt lat="51.77876" lon="7.1346">
				<ele>89.15</ele>
				<time>2025-06-21T15:14:04.409Z</time>
			</trkpt>
			<trkpt lat="51.7787" lon="7.13551">
				<ele>88.19</ele>
				<time>2025-06-21T15:14:10.123Z</time>
			</trkpt>
			<trkpt lat="51.77845" lon="7.14084">
				<ele>82.13</ele>
				<time>2025-06-21T15:14:43.619Z</time>
			</trkpt>
			<trkpt lat="51.77842" lon="7.14216">
				<ele>78.3</ele>
				<time>2025-06-21T15:14:51.922Z</time>
			</trkpt>
			<trkpt lat="51.77846" lon="7.14544">
				<ele>73.55</ele>
				<time>2025-06-21T15:15:12.578Z</time>
			</trkpt>
			<trkpt lat="51.77849" lon="7.1461">
				<ele>73.59</ele>
				<time>2025-06-21T15:15:16.749Z</time>
			</trkpt>
			<trkpt lat="51.77884" lon="7.14958">
				<ele>70.92</ele>
				<time>2025-06-21T15:15:38.994Z</time>
			</trkpt>
			<trkpt lat="51.77898" lon="7.15106">
				<ele>71.66</ele>
				<time>2025-06-21T15:15:48.448Z</time>
			</trkpt>
			<trkpt lat="51.77915" lon="7.15239">
				<ele>69.89</ele>
				<time>2025-06-21T15:15:57.025Z</time>
			</trkpt>
			<trkpt lat="51.77924" lon="7.15293">
				<ele>69.28</ele>
				<time>2025-06-21T15:16:00.557Z</time>
			</trkpt>
			<trkpt lat="51.77971" lon="7.15511">
				<ele>69.56</ele>
				<time>2025-06-21T15:16:15.138Z</time>
			</trkpt>
			<trkpt lat="51.77975" lon="7.15541">
				<ele>68.78</ele>
				<time>2025-06-21T15:16:17.076Z</time>
			</trkpt>
			<trkpt lat="51.77981" lon="7.15608">
				<ele>68.36</ele>
				<time>2025-06-21T15:16:21.350Z</time>
			</trkpt>
			<trkpt lat="51.77982" lon="7.15646">
				<ele>68.27</ele>
				<time>2025-06-21T15:16:23.752Z</time>
			</trkpt>
			<trkpt lat="51.77981" lon="7.15685">
				<ele>68</ele>
				<time>2025-06-21T15:16:26.216Z</time>
			</trkpt>
			<trkpt lat="51.77975" lon="7.15748">
				<ele>67.86</ele>
				<time>2025-06-21T15:16:30.240Z</time>
			</trkpt>
			<trkpt lat="51.77967" lon="7.158">
				<ele>69.5</ele>
				<time>2025-06-21T15:16:33.622Z</time>
			</trkpt>
			<trkpt lat="51.77961" lon="7.1583">
				<ele>70.73</ele>
				<time>2025-06-21T15:16:35.612Z</time>
			</trkpt>
			<trkpt lat="51.77943" lon="7.15896">
				<ele>73.04</ele>
				<time>2025-06-21T15:16:40.163Z</time>
			</trkpt>
			<trkpt lat="51.77918" lon="7.1596">
				<ele>73.93</ele>
				<time>2025-06-21T15:16:44.937Z</time>
			</trkpt>
			<trkpt lat="51.77905" lon="7.15987">
				<ele>74.39</ele>
				<time>2025-06-21T15:16:47.094Z</time>
			</trkpt>
			<trkpt lat="51.77894" lon="7.16022">
				<ele>74.8</ele>
				<time>2025-06-21T15:16:49.570Z</time>
			</trkpt>
			<trkpt lat="51.77886" lon="7.16059">
				<ele>75</ele>
				<time>2025-06-21T15:16:52.040Z</time>
			</trkpt>
			<trkpt lat="51.77883" lon="7.16097">
				<ele>75.52</ele>
				<time>2025-06-21T15:16:54.455Z</time>
			</trkpt>
			<trkpt lat="51.77883" lon="7.16132">
				<ele>76</ele>
				<time>2025-06-21T15:16:56.660Z</time>
			</trkpt>
			<trkpt lat="51.77885" lon="7.16157">
				<ele>76</ele>
				<time>2025-06-21T15:16:58.248Z</time>
			</trkpt>
			<trkpt lat="51.77892" lon="7.16215">
				<ele>75.25</ele>
				<time>2025-06-21T15:17:01.971Z</time>
			</trkpt>
			<trkpt lat="51.77912" lon="7.16442">
				<ele>72.72</ele>
				<time>2025-06-21T15:17:16.399Z</time>
			</trkpt>
			<trkpt lat="51.77925" lon="7.16538">
				<ele>69.64</ele>
				<time>2025-06-21T15:17:22.575Z</time>
			</trkpt>
			<trkpt lat="51.77946" lon="7.16651">
				<ele>66.55</ele>
				<time>2025-06-21T15:17:29.983Z</time>
			</trkpt>
			<trkpt lat="51.77962" lon="7.16712">
				<ele>64.35</ele>
				<time>2025-06-21T15:17:34.140Z</time>
			</trkpt>
			<trkpt lat="51.77982" lon="7.16787">
				<ele>64</ele>
				<time>2025-06-21T15:17:39.260Z</time>
			</trkpt>
			<trkpt lat="51.78016" lon="7.16901">
				<ele>65.18</ele>
				<time>2025-06-21T15:17:47.185Z</time>
			</trkpt>
			<trkpt lat="51.7819" lon="7.1745">
				<ele>68.38</ele>
				<time>2025-06-21T15:18:25.635Z</time>
			</trkpt>
			<trkpt lat="51.78259" lon="7.17664">
				<ele>70.72</ele>
				<time>2025-06-21T15:18:40.582Z</time>
			</trkpt>
			<trkpt lat="51.78283" lon="7.17744">
				<ele>70</ele>
				<time>2025-06-21T15:18:46.073Z</time>
			</trkpt>
			<trkpt lat="51.78307" lon="7.17836">
				<ele>67.93</ele>
				<time>2025-06-21T15:18:52.230Z</time>
			</trkpt>
			<trkpt lat="51.7832" lon="7.17904">
				<ele>66.45</ele>
				<time>2025-06-21T15:18:56.612Z</time>
			</trkpt>
			<trkpt lat="51.78334" lon="7.18017">
				<ele>68</ele>
				<time>2025-06-21T15:19:03.694Z</time>
			</trkpt>
			<trkpt lat="51.78336" lon="7.18048">
				<ele>67.9</ele>
				<time>2025-06-21T15:19:05.606Z</time>
			</trkpt>
			<trkpt lat="51.78338" lon="7.18157">
				<ele>70.48</ele>
				<time>2025-06-21T15:19:12.288Z</time>
			</trkpt>
			<trkpt lat="51.78336" lon="7.18207">
				<ele>72.25</ele>
				<time>2025-06-21T15:19:15.354Z</time>
			</trkpt>
			<trkpt lat="51.78329" lon="7.18289">
				<ele>74.26</ele>
				<time>2025-06-21T15:19:20.410Z</time>
			</trkpt>
			<trkpt lat="51.78319" lon="7.18379">
				<ele>74.85</ele>
				<time>2025-06-21T15:19:25.985Z</time>
			</trkpt>
			<trkpt lat="51.78287" lon="7.18616">
				<ele>73.48</ele>
				<time>2025-06-21T15:19:40.719Z</time>
			</trkpt>
			<trkpt lat="51.78278" lon="7.18717">
				<ele>78.6</ele>
				<time>2025-06-21T15:19:46.891Z</time>
			</trkpt>
			<trkpt lat="51.78273" lon="7.18827">
				<ele>81.18</ele>
				<time>2025-06-21T15:19:53.544Z</time>
			</trkpt>
			<trkpt lat="51.78273" lon="7.18901">
				<ele>80.15</ele>
				<time>2025-06-21T15:19:57.997Z</time>
			</trkpt>
			<trkpt lat="51.78276" lon="7.18995">
				<ele>82.82</ele>
				<time>2025-06-21T15:20:03.649Z</time>
			</trkpt>
			<trkpt lat="51.783" lon="7.1931">
				<ele>81.03</ele>
				<time>2025-06-21T15:20:22.595Z</time>
			</trkpt>
			<trkpt lat="51.78302" lon="7.19363">
				<ele>81.17</ele>
				<time>2025-06-21T15:20:25.748Z</time>
			</trkpt>
			<trkpt lat="51.78303" lon="7.19467">
				<ele>81.1</ele>
				<time>2025-06-21T15:20:31.909Z</time>
			</trkpt>
			<trkpt lat="51.78299" lon="7.19536">
				<ele>78.86</ele>
				<time>2025-06-21T15:20:36.003Z</time>
			</trkpt>
			<trkpt lat="51.78291" lon="7.19612">
				<ele>75.97</ele>
				<time>2025-06-21T15:20:40.546Z</time>
			</trkpt>
			<trkpt lat="51.78275" lon="7.19702">
				<ele>74.06</ele>
				<time>2025-06-21T15:20:46.050Z</time>
			</trkpt>
			<trkpt lat="51.78255" lon="7.19788">
				<ele>74.47</ele>
				<time>2025-06-21T15:20:51.433Z</time>
			</trkpt>
			<trkpt lat="51.78137" lon="7.20272">
				<ele>65.73</ele>
				<time>2025-06-21T15:21:21.588Z</time>
			</trkpt>
			<trkpt lat="51.78059" lon="7.20588">
				<ele>63.66</ele>
				<time>2025-06-21T15:21:40.990Z</time>
			</trkpt>
			<trkpt lat="51.77992" lon="7.20862">
				<ele>63.24</ele>
				<time>2025-06-21T15:21:57.572Z</time>
			</trkpt>
			<trkpt lat="51.78999" lon="7.22286">
				<ele>59</ele>
				<time>2025-06-21T15:23:53.964Z</time>
			</trkpt>
			<trkpt lat="51.79072" lon="7.22392">
				<ele>62.12</ele>
				<time>2025-06-21T15:24:02.251Z</time>
			</trkpt>
			<trkpt lat="51.79175" lon="7.22534">
				<ele>62.92</ele>
				<time>2025-06-21T15:24:13.655Z</time>
			</trkpt>
			<trkpt lat="51.79663" lon="7.23221">
				<ele>66.12</ele>
				<time>2025-06-21T15:25:07.938Z</time>
			</trkpt>
			<trkpt lat="51.79756" lon="7.23357">
				<ele>63.63</ele>
				<time>2025-06-21T15:25:18.462Z</time>
			</trkpt>
			<trkpt lat="51.79828" lon="7.23453">
				<ele>66.83</ele>
				<time>2025-06-21T15:25:26.304Z</time>
			</trkpt>
			<trkpt lat="51.79913" lon="7.23557">
				<ele>68</ele>
				<time>2025-06-21T15:25:35.276Z</time>
			</trkpt>
			<trkpt lat="51.79997" lon="7.23659">
				<ele>68</ele>
				<time>2025-06-21T15:25:44.137Z</time>
			</trkpt>
			<trkpt lat="51.80028" lon="7.2369">
				<ele>66.13</ele>
				<time>2025-06-21T15:25:47.217Z</time>
			</trkpt>
			<trkpt lat="51.80152" lon="7.23805">
				<ele>65</ele>
				<time>2025-06-21T15:25:59.324Z</time>
			</trkpt>
			<trkpt lat="51.80413" lon="7.23995">
				<ele>58.05</ele>
				<time>2025-06-21T15:26:23.735Z</time>
			</trkpt>
			<trkpt lat="51.80485" lon="7.24052">
				<ele>53.7</ele>
				<time>2025-06-21T15:26:30.621Z</time>
			</trkpt>
			<trkpt lat="51.80583" lon="7.24141">
				<ele>49.07</ele>
				<time>2025-06-21T15:26:40.317Z</time>
			</trkpt>
			<trkpt lat="51.80658" lon="7.24218">
				<ele>48.73</ele>
				<time>2025-06-21T15:26:48.017Z</time>
			</trkpt>
			<trkpt lat="51.8081" lon="7.2439">
				<ele>49.83</ele>
				<time>2025-06-21T15:27:04.214Z</time>
			</trkpt>
			<trkpt lat="51.80854" lon="7.24441">
				<ele>49</ele>
				<time>2025-06-21T15:27:08.972Z</time>
			</trkpt>
			<trkpt lat="51.80899" lon="7.24498">
				<ele>49</ele>
				<time>2025-06-21T15:27:14.012Z</time>
			</trkpt>
			<trkpt lat="51.80918" lon="7.24527">
				<ele>48.99</ele>
				<time>2025-06-21T15:27:16.322Z</time>
			</trkpt>
			<trkpt lat="51.80938" lon="7.2457">
				<ele>48.22</ele>
				<time>2025-06-21T15:27:19.268Z</time>
			</trkpt>
			<trkpt lat="51.80948" lon="7.246">
				<ele>48</ele>
				<time>2025-06-21T15:27:21.138Z</time>
			</trkpt>
			<trkpt lat="51.8099" lon="7.24729">
				<ele>52.66</ele>
				<time>2025-06-21T15:27:29.164Z</time>
			</trkpt>
			<trkpt lat="51.81005" lon="7.24767">
				<ele>52.88</ele>
				<time>2025-06-21T15:27:31.656Z</time>
			</trkpt>
			<trkpt lat="51.8104" lon="7.24868">
				<ele>50.95</ele>
				<time>2025-06-21T15:27:38.077Z</time>
			</trkpt>
			<trkpt lat="51.81059" lon="7.24915">
				<ele>49.72</ele>
				<time>2025-06-21T15:27:41.202Z</time>
			</trkpt>
			<trkpt lat="51.81071" lon="7.2494">
				<ele>48.98</ele>
				<time>2025-06-21T15:27:42.967Z</time>
			</trkpt>
			<trkpt lat="51.81127" lon="7.25028">
				<ele>48.42</ele>
				<time>2025-06-21T15:27:50.035Z</time>
			</trkpt>
			<trkpt lat="51.81118" lon="7.25045">
				<ele>48.9</ele>
				<time>2025-06-21T15:27:51.291Z</time>
			</trkpt>
			<trkpt lat="51.81065" lon="7.25279">
				<ele>48</ele>
				<time>2025-06-21T15:28:05.370Z</time>
			</trkpt>
			<trkpt lat="51.81048" lon="7.25335">
				<ele>49</ele>
				<time>2025-06-21T15:28:08.918Z</time>
			</trkpt>
			<trkpt lat="51.81032" lon="7.2537">
				<ele>49.26</ele>
				<time>2025-06-21T15:28:11.400Z</time>
			</trkpt>
			<trkpt lat="51.81002" lon="7.25422">
				<ele>50</ele>
				<time>2025-06-21T15:28:15.463Z</time>
			</trkpt>
			<trkpt lat="51.8099" lon="7.2544">
				<ele>49.69</ele>
				<time>2025-06-21T15:28:16.979Z</time>
			</trkpt>
			<trkpt lat="51.80925" lon="7.25518">
				<ele>49</ele>
				<time>2025-06-21T15:28:24.496Z</time>
			</trkpt>
			<trkpt lat="51.80792" lon="7.25675">
				<ele>49.84</ele>
				<time>2025-06-21T15:28:39.904Z</time>
			</trkpt>
			<trkpt lat="51.80751" lon="7.25759">
				<ele>48</ele>
				<time>2025-06-21T15:28:46.137Z</time>
			</trkpt>
			<trkpt lat="51.8073" lon="7.25809">
				<ele>48</ele>
				<time>2025-06-21T15:28:49.667Z</time>
			</trkpt>
			<trkpt lat="51.80678" lon="7.25942">
				<ele>48.03</ele>
				<time>2025-06-21T15:28:58.890Z</time>
			</trkpt>
			<trkpt lat="51.80673" lon="7.2596">
				<ele>48</ele>
				<time>2025-06-21T15:29:00.050Z</time>
			</trkpt>
			<trkpt lat="51.80646" lon="7.26162">
				<ele>54.24</ele>
				<time>2025-06-21T15:29:12.237Z</time>
			</trkpt>
			<trkpt lat="51.80638" lon="7.26204">
				<ele>54.63</ele>
				<time>2025-06-21T15:29:14.838Z</time>
			</trkpt>
			<trkpt lat="51.80629" lon="7.26238">
				<ele>53.22</ele>
				<time>2025-06-21T15:29:17.030Z</time>
			</trkpt>
			<trkpt lat="51.80606" lon="7.26286">
				<ele>49.51</ele>
				<time>2025-06-21T15:29:20.632Z</time>
			</trkpt>
			<trkpt lat="51.8058" lon="7.26322">
				<ele>47.38</ele>
				<time>2025-06-21T15:29:23.921Z</time>
			</trkpt>
			<trkpt lat="51.80566" lon="7.26336">
				<ele>47</ele>
				<time>2025-06-21T15:29:25.505Z</time>
			</trkpt>
			<trkpt lat="51.80527" lon="7.26364">
				<ele>47.87</ele>
				<time>2025-06-21T15:29:29.615Z</time>
			</trkpt>
			<trkpt lat="51.80478" lon="7.26404">
				<ele>45.21</ele>
				<time>2025-06-21T15:29:34.911Z</time>
			</trkpt>
			<trkpt lat="51.80444" lon="7.26436">
				<ele>46.69</ele>
				<time>2025-06-21T15:29:38.715Z</time>
			</trkpt>
			<trkpt lat="51.80427" lon="7.26457">
				<ele>48.05</ele>
				<time>2025-06-21T15:29:40.785Z</time>
			</trkpt>
			<trkpt lat="51.80415" lon="7.26478">
				<ele>49.22</ele>
				<time>2025-06-21T15:29:42.497Z</time>
			</trkpt>
			<trkpt lat="51.80407" lon="7.26489">
				<ele>49.42</ele>
				<time>2025-06-21T15:29:43.515Z</time>
			</trkpt>
			<trkpt lat="51.80393" lon="7.26506">
				<ele>49.12</ele>
				<time>2025-06-21T15:29:45.212Z</time>
			</trkpt>
			<trkpt lat="51.80383" lon="7.26515">
				<ele>48.78</ele>
				<time>2025-06-21T15:29:46.322Z</time>
			</trkpt>
			<trkpt lat="51.80265" lon="7.26597">
				<ele>48.05</ele>
				<time>2025-06-21T15:29:58.809Z</time>
			</trkpt>
			<trkpt lat="51.80256" lon="7.26607">
				<ele>48.09</ele>
				<time>2025-06-21T15:29:59.873Z</time>
			</trkpt>
			<trkpt lat="51.80246" lon="7.26622">
				<ele>48.13</ele>
				<time>2025-06-21T15:30:01.203Z</time>
			</trkpt>
			<trkpt lat="51.80194" lon="7.26738">
				<ele>48</ele>
				<time>2025-06-21T15:30:09.852Z</time>
			</trkpt>
			<trkpt lat="51.80182" lon="7.26755">
				<ele>48.18</ele>
				<time>2025-06-21T15:30:11.412Z</time>
			</trkpt>
			<trkpt lat="51.80175" lon="7.26762">
				<ele>48.44</ele>
				<time>2025-06-21T15:30:12.217Z</time>
			</trkpt>
			<trkpt lat="51.80156" lon="7.26774">
				<ele>48.87</ele>
				<time>2025-06-21T15:30:14.212Z</time>
			</trkpt>
			<trkpt lat="51.79873" lon="7.26855">
				<ele>52.32</ele>
				<time>2025-06-21T15:30:42.433Z</time>
			</trkpt>
			<trkpt lat="51.79759" lon="7.26891">
				<ele>52.34</ele>
				<time>2025-06-21T15:30:53.883Z</time>
			</trkpt>
			<trkpt lat="51.79615" lon="7.26928">
				<ele>48</ele>
				<time>2025-06-21T15:31:08.284Z</time>
			</trkpt>
			<trkpt lat="51.79433" lon="7.26974">
				<ele>46.56</ele>
				<time>2025-06-21T15:31:26.508Z</time>
			</trkpt>
			<trkpt lat="51.7903" lon="7.27077">
				<ele>45</ele>
				<time>2025-06-21T15:32:06.911Z</time>
			</trkpt>
			<trkpt lat="51.78538" lon="7.27202">
				<ele>46.08</ele>
				<time>2025-06-21T15:32:56.075Z</time>
			</trkpt>
			<trkpt lat="51.78383" lon="7.2724">
				<ele>44</ele>
				<time>2025-06-21T15:33:11.465Z</time>
			</trkpt>
			<trkpt lat="51.78249" lon="7.27274">
				<ele>45.01</ele>
				<time>2025-06-21T15:33:24.733Z</time>
			</trkpt>
			<trkpt lat="51.78168" lon="7.27298">
				<ele>47.68</ele>
				<time>2025-06-21T15:33:32.764Z</time>
			</trkpt>
			<trkpt lat="51.78155" lon="7.27305">
				<ele>47.58</ele>
				<time>2025-06-21T15:33:34.098Z</time>
			</trkpt>
			<trkpt lat="51.78142" lon="7.27327">
				<ele>48.67</ele>
				<time>2025-06-21T15:33:35.930Z</time>
			</trkpt>
			<trkpt lat="51.78135" lon="7.2735">
				<ele>49</ele>
				<time>2025-06-21T15:33:37.473Z</time>
			</trkpt>
			<trkpt lat="51.78132" lon="7.27394">
				<ele>49.95</ele>
				<time>2025-06-21T15:33:40.135Z</time>
			</trkpt>
			<trkpt lat="51.78141" lon="7.27538">
				<ele>44.53</ele>
				<time>2025-06-21T15:33:48.821Z</time>
			</trkpt>
			<trkpt lat="51.78141" lon="7.27577">
				<ele>43.9</ele>
				<time>2025-06-21T15:33:51.158Z</time>
			</trkpt>
			<trkpt lat="51.78137" lon="7.27603">
				<ele>43.98</ele>
				<time>2025-06-21T15:33:52.761Z</time>
			</trkpt>
			<trkpt lat="51.78101" lon="7.27717">
				<ele>48.4</ele>
				<time>2025-06-21T15:34:00.408Z</time>
			</trkpt>
			<trkpt lat="51.78027" lon="7.27912">
				<ele>51.15</ele>
				<time>2025-06-21T15:34:14.016Z</time>
			</trkpt>
			<trkpt lat="51.78021" lon="7.27935">
				<ele>50.53</ele>
				<time>2025-06-21T15:34:15.496Z</time>
			</trkpt>
			<trkpt lat="51.78023" lon="7.27956">
				<ele>50.08</ele>
				<time>2025-06-21T15:34:16.755Z</time>
			</trkpt>
			<trkpt lat="51.7814" lon="7.28293">
				<ele>48.85</ele>
				<time>2025-06-21T15:34:39.515Z</time>
			</trkpt>
			<trkpt lat="51.78171" lon="7.2839">
				<ele>50.35</ele>
				<time>2025-06-21T15:34:45.895Z</time>
			</trkpt>
			<trkpt lat="51.78176" lon="7.28418">
				<ele>50.78</ele>
				<time>2025-06-21T15:34:47.594Z</time>
			</trkpt>
			<trkpt lat="51.78177" lon="7.28449">
				<ele>51.78</ele>
				<time>2025-06-21T15:34:49.403Z</time>
			</trkpt>
			<trkpt lat="51.78175" lon="7.28498">
				<ele>51.67</ele>
				<time>2025-06-21T15:34:52.259Z</time>
			</trkpt>
			<trkpt lat="51.78166" lon="7.28736">
				<ele>49.97</ele>
				<time>2025-06-21T15:35:06.058Z</time>
			</trkpt>
			<trkpt lat="51.78159" lon="7.29007">
				<ele>53.93</ele>
				<time>2025-06-21T15:35:21.602Z</time>
			</trkpt>
			<trkpt lat="51.78195" lon="7.29432">
				<ele>52.55</ele>
				<time>2025-06-21T15:35:45.825Z</time>
			</trkpt>
			<trkpt lat="51.78269" lon="7.30386">
				<ele>50.11</ele>
				<time>2025-06-21T15:36:38.267Z</time>
			</trkpt>
			<trkpt lat="51.78261" lon="7.3055">
				<ele>52.04</ele>
				<time>2025-06-21T15:36:46.952Z</time>
			</trkpt>
			<trkpt lat="51.78234" lon="7.3092">
				<ele>49.15</ele>
				<time>2025-06-21T15:37:06.278Z</time>
			</trkpt>
			<trkpt lat="51.78229" lon="7.31019">
				<ele>50.74</ele>
				<time>2025-06-21T15:37:11.347Z</time>
			</trkpt>
			<trkpt lat="51.78232" lon="7.31091">
				<ele>51.05</ele>
				<time>2025-06-21T15:37:15.006Z</time>
			</trkpt>
			<trkpt lat="51.78249" lon="7.31225">
				<ele>49</ele>
				<time>2025-06-21T15:37:21.889Z</time>
			</trkpt>
			<trkpt lat="51.78251" lon="7.3129">
				<ele>49.94</ele>
				<time>2025-06-21T15:37:25.139Z</time>
			</trkpt>
			<trkpt lat="51.78249" lon="7.31359">
				<ele>51.06</ele>
				<time>2025-06-21T15:37:28.571Z</time>
			</trkpt>
			<trkpt lat="51.78235" lon="7.31442">
				<ele>50.59</ele>
				<time>2025-06-21T15:37:32.818Z</time>
			</trkpt>
			<trkpt lat="51.78215" lon="7.31523">
				<ele>51.24</ele>
				<time>2025-06-21T15:37:37.094Z</time>
			</trkpt>
			<trkpt lat="51.78049" lon="7.32008">
				<ele>52.22</ele>
				<time>2025-06-21T15:38:03.532Z</time>
			</trkpt>
			<trkpt lat="51.77823" lon="7.32659">
				<ele>55.27</ele>
				<time>2025-06-21T15:38:36.984Z</time>
			</trkpt>
			<trkpt lat="51.77754" lon="7.33131">
				<ele>57.84</ele>
				<time>2025-06-21T15:38:57.275Z</time>
			</trkpt>
			<trkpt lat="51.77743" lon="7.33197">
				<ele>59</ele>
				<time>2025-06-21T15:39:00.038Z</time>
			</trkpt>
			<trkpt lat="51.77728" lon="7.33257">
				<ele>59</ele>
				<time>2025-06-21T15:39:02.632Z</time>
			</trkpt>
			<trkpt lat="51.77703" lon="7.33344">
				<ele>60</ele>
				<time>2025-06-21T15:39:06.435Z</time>
			</trkpt>
			<trkpt lat="51.77695" lon="7.33378">
				<ele>60.61</ele>
				<time>2025-06-21T15:39:07.864Z</time>
			</trkpt>
			<trkpt lat="51.7767" lon="7.33495">
				<ele>60.97</ele>
				<time>2025-06-21T15:39:12.675Z</time>
			</trkpt>
			<trkpt lat="51.7766" lon="7.33553">
				<ele>62.91</ele>
				<time>2025-06-21T15:39:14.984Z</time>
			</trkpt>
			<trkpt lat="51.77657" lon="7.33616">
				<ele>64.66</ele>
				<time>2025-06-21T15:39:17.387Z</time>
			</trkpt>
			<trkpt lat="51.7764" lon="7.33723">
				<ele>64</ele>
				<time>2025-06-21T15:39:21.534Z</time>
			</trkpt>
			<trkpt lat="51.77617" lon="7.33847">
				<ele>66</ele>
				<time>2025-06-21T15:39:26.306Z</time>
			</trkpt>
			<trkpt lat="51.776" lon="7.33917">
				<ele>67.4</ele>
				<time>2025-06-21T15:39:29.034Z</time>
			</trkpt>
			<trkpt lat="51.77502" lon="7.34028">
				<ele>68.02</ele>
				<time>2025-06-21T15:39:35.902Z</time>
			</trkpt>
			<trkpt lat="51.77434" lon="7.34093">
				<ele>67.88</ele>
				<time>2025-06-21T15:39:40.315Z</time>
			</trkpt>
			<trkpt lat="51.77368" lon="7.34135">
				<ele>70</ele>
				<time>2025-06-21T15:39:44.195Z</time>
			</trkpt>
			<trkpt lat="51.7728" lon="7.34183">
				<ele>69.08</ele>
				<time>2025-06-21T15:39:49.155Z</time>
			</trkpt>
			<trkpt lat="51.77315" lon="7.34318">
				<ele>70.47</ele>
				<time>2025-06-21T15:39:53.862Z</time>
			</trkpt>
			<trkpt lat="51.77372" lon="7.34463">
				<ele>71</ele>
				<time>2025-06-21T15:39:59.245Z</time>
			</trkpt>
			<trkpt lat="51.77506" lon="7.34713">
				<ele>72.77</ele>
				<time>2025-06-21T15:40:09.317Z</time>
			</trkpt>
			<trkpt lat="51.776" lon="7.34897">
				<ele>69.61</ele>
				<time>2025-06-21T15:40:16.466Z</time>
			</trkpt>
			<trkpt lat="51.78123" lon="7.35879">
				<ele>84.66</ele>
				<time>2025-06-21T15:40:58.176Z</time>
			</trkpt>
			<trkpt lat="51.78015" lon="7.36099">
				<ele>85</ele>
				<time>2025-06-21T15:41:08.808Z</time>
			</trkpt>
			<trkpt lat="51.77993" lon="7.36152">
				<ele>86.23</ele>
				<time>2025-06-21T15:41:11.320Z</time>
			</trkpt>
			<trkpt lat="51.77974" lon="7.36205">
				<ele>86.47</ele>
				<time>2025-06-21T15:41:13.760Z</time>
			</trkpt>
			<trkpt lat="51.77896" lon="7.36485">
				<ele>88.26</ele>
				<time>2025-06-21T15:41:26.372Z</time>
			</trkpt>
			<trkpt lat="51.77805" lon="7.36802">
				<ele>89.98</ele>
				<time>2025-06-21T15:41:41.302Z</time>
			</trkpt>
			<trkpt lat="51.77782" lon="7.36889">
				<ele>90.82</ele>
				<time>2025-06-21T15:41:45.412Z</time>
			</trkpt>
			<trkpt lat="51.77705" lon="7.37082">
				<ele>96.77</ele>
				<time>2025-06-21T15:41:55.451Z</time>
			</trkpt>
			<trkpt lat="51.77673" lon="7.37181">
				<ele>96.96</ele>
				<time>2025-06-21T15:42:00.346Z</time>
			</trkpt>
			<trkpt lat="51.77656" lon="7.37254">
				<ele>94.48</ele>
				<time>2025-06-21T15:42:03.761Z</time>
			</trkpt>
			<trkpt lat="51.77645" lon="7.37322">
				<ele>93.08</ele>
				<time>2025-06-21T15:42:06.834Z</time>
			</trkpt>
			<trkpt lat="51.77638" lon="7.37445">
				<ele>93.01</ele>
				<time>2025-06-21T15:42:12.215Z</time>
			</trkpt>
			<trkpt lat="51.77631" lon="7.37673">
				<ele>95</ele>
				<time>2025-06-21T15:42:22.055Z</time>
			</trkpt>
			<trkpt lat="51.7763" lon="7.37707">
				<ele>94.54</ele>
				<time>2025-06-21T15:42:23.507Z</time>
			</trkpt>
			<trkpt lat="51.77622" lon="7.37804">
				<ele>94</ele>
				<time>2025-06-21T15:42:27.652Z</time>
			</trkpt>
			<trkpt lat="51.77614" lon="7.37877">
				<ele>94.19</ele>
				<time>2025-06-21T15:42:30.761Z</time>
			</trkpt>
			<trkpt lat="51.776" lon="7.37953">
				<ele>95</ele>
				<time>2025-06-21T15:42:34.054Z</time>
			</trkpt>
			<trkpt lat="51.77585" lon="7.38021">
				<ele>95</ele>
				<time>2025-06-21T15:42:37.019Z</time>
			</trkpt>
			<trkpt lat="51.77566" lon="7.38093">
				<ele>95</ele>
				<time>2025-06-21T15:42:40.195Z</time>
			</trkpt>
			<trkpt lat="51.77526" lon="7.382">
				<ele>94.78</ele>
				<time>2025-06-21T15:42:45.178Z</time>
			</trkpt>
			<trkpt lat="51.77496" lon="7.38259">
				<ele>93.66</ele>
				<time>2025-06-21T15:42:48.161Z</time>
			</trkpt>
			<trkpt lat="51.77466" lon="7.38314">
				<ele>93.47</ele>
				<time>2025-06-21T15:42:50.979Z</time>
			</trkpt>
			<trkpt lat="51.77428" lon="7.38369">
				<ele>94.87</ele>
				<time>2025-06-21T15:42:54.090Z</time>
			</trkpt>
			<trkpt lat="51.77383" lon="7.38423">
				<ele>95.61</ele>
				<time>2025-06-21T15:42:57.432Z</time>
			</trkpt>
			<trkpt lat="51.77364" lon="7.38443">
				<ele>95</ele>
				<time>2025-06-21T15:42:58.761Z</time>
			</trkpt>
			<trkpt lat="51.77325" lon="7.38479">
				<ele>94.01</ele>
				<time>2025-06-21T15:43:01.351Z</time>
			</trkpt>
			<trkpt lat="51.77285" lon="7.3851">
				<ele>94.72</ele>
				<time>2025-06-21T15:43:03.853Z</time>
			</trkpt>
			<trkpt lat="51.77229" lon="7.38544">
				<ele>94.56</ele>
				<time>2025-06-21T15:43:07.132Z</time>
			</trkpt>
			<trkpt lat="51.7718" lon="7.38568">
				<ele>95</ele>
				<time>2025-06-21T15:43:09.849Z</time>
			</trkpt>
			<trkpt lat="51.7708" lon="7.38614">
				<ele>95.9</ele>
				<time>2025-06-21T15:43:15.092Z</time>
			</trkpt>
			<trkpt lat="51.76969" lon="7.3867">
				<ele>97.11</ele>
				<time>2025-06-21T15:43:20.488Z</time>
			</trkpt>
			<trkpt lat="51.76923" lon="7.38684">
				<ele>98</ele>
				<time>2025-06-21T15:43:22.510Z</time>
			</trkpt>
			<trkpt lat="51.76917" lon="7.38676">
				<ele>98</ele>
				<time>2025-06-21T15:43:22.837Z</time>
			</trkpt>
			<trkpt lat="51.76914" lon="7.38674">
				<ele>98.08</ele>
				<time>2025-06-21T15:43:22.973Z</time>
			</trkpt>
			<trkpt lat="51.76908" lon="7.38674">
				<ele>98.29</ele>
				<time>2025-06-21T15:43:23.223Z</time>
			</trkpt>
			<trkpt lat="51.76899" lon="7.38682">
				<ele>98.6</ele>
				<time>2025-06-21T15:43:23.648Z</time>
			</trkpt>
			<trkpt lat="51.76896" lon="7.38694">
				<ele>98.73</ele>
				<time>2025-06-21T15:43:23.977Z</time>
			</trkpt>
			<trkpt lat="51.76896" lon="7.38704">
				<ele>98.81</ele>
				<time>2025-06-21T15:43:24.229Z</time>
			</trkpt>
			<trkpt lat="51.76899" lon="7.38712">
				<ele>98.87</ele>
				<time>2025-06-21T15:43:24.465Z</time>
			</trkpt>
			<trkpt lat="51.76907" lon="7.38721">
				<ele>98.98</ele>
				<time>2025-06-21T15:43:24.859Z</time>
			</trkpt>
			<trkpt lat="51.76918" lon="7.38793">
				<ele>97.92</ele>
				<time>2025-06-21T15:43:26.700Z</time>
			</trkpt>
			<trkpt lat="51.76917" lon="7.38879">
				<ele>97.28</ele>
				<time>2025-06-21T15:43:28.847Z</time>
			</trkpt>
			<trkpt lat="51.76914" lon="7.38933">
				<ele>96.48</ele>
				<time>2025-06-21T15:43:30.239Z</time>
			</trkpt>
			<trkpt lat="51.76907" lon="7.38992">
				<ele>95.58</ele>
				<time>2025-06-21T15:43:31.841Z</time>
			</trkpt>
			<trkpt lat="51.76898" lon="7.39048">
				<ele>94.94</ele>
				<time>2025-06-21T15:43:33.469Z</time>
			</trkpt>
			<trkpt lat="51.76884" lon="7.39108">
				<ele>94.24</ele>
				<time>2025-06-21T15:43:35.395Z</time>
			</trkpt>
			<trkpt lat="51.76867" lon="7.39167">
				<ele>93.76</ele>
				<time>2025-06-21T15:43:37.515Z</time>
			</trkpt>
			<trkpt lat="51.76845" lon="7.3923">
				<ele>92.57</ele>
				<time>2025-06-21T15:43:40.102Z</time>
			</trkpt>
			<trkpt lat="51.76753" lon="7.39438">
				<ele>93.71</ele>
				<time>2025-06-21T15:43:51.843Z</time>
			</trkpt>
			<trkpt lat="51.76678" lon="7.39606">
				<ele>88.66</ele>
				<time>2025-06-21T15:44:05.322Z</time>
			</trkpt>
			<trkpt lat="51.76609" lon="7.39774">
				<ele>86.23</ele>
				<time>2025-06-21T15:44:22.916Z</time>
			</trkpt>
			<trkpt lat="51.76576" lon="7.39741">
				<ele>89.59</ele>
				<time>2025-06-21T15:44:29.435Z</time>
			</trkpt>
			<trkpt lat="51.76545" lon="7.39724">
				<ele>92.2</ele>
				<time>2025-06-21T15:44:35.321Z</time>
			</trkpt>
			<trkpt lat="51.7647" lon="7.39695">
				<ele>93.94</ele>
				<time>2025-06-21T15:44:50.418Z</time>
			</trkpt>
			<trkpt lat="51.76427" lon="7.39677">
				<ele>96.59</ele>
				<time>2025-06-21T15:44:59.787Z</time>
			</trkpt>
			<trkpt lat="51.76385" lon="7.39663">
				<ele>99.11</ele>
				<time>2025-06-21T15:45:09.216Z</time>
			</trkpt>
			<trkpt lat="51.76368" lon="7.39651">
				<ele>99.54</ele>
				<time>2025-06-21T15:45:13.396Z</time>
			</trkpt>
			<trkpt lat="51.7635" lon="7.39625">
				<ele>100.55</ele>
				<time>2025-06-21T15:45:18.915Z</time>
			</trkpt>
			<trkpt lat="51.76321" lon="7.39573">
				<ele>103.48</ele>
				<time>2025-06-21T15:45:29.008Z</time>
			</trkpt>
			<trkpt lat="51.76317" lon="7.39567">
				<ele>104.15</ele>
				<time>2025-06-21T15:45:30.294Z</time>
			</trkpt>
			<trkpt lat="51.76304" lon="7.395">
				<ele>104.02</ele>
				<time>2025-06-21T15:45:40.577Z</time>
			</trkpt>
			<trkpt lat="51.76296" lon="7.39465">
				<ele>104.31</ele>
				<time>2025-06-21T15:45:45.947Z</time>
			</trkpt>
			<trkpt lat="51.76284" lon="7.3943">
				<ele>104.88</ele>
				<time>2025-06-21T15:45:51.506Z</time>
			</trkpt>
			<trkpt lat="51.76262" lon="7.39465">
				<ele>105.53</ele>
				<time>2025-06-21T15:45:57.993Z</time>
			</trkpt>
			<trkpt lat="51.76215" lon="7.39518">
				<ele>105.76</ele>
				<time>2025-06-21T15:46:08.550Z</time>
			</trkpt>
			<trkpt lat="51.76191" lon="7.39533">
				<ele>105.27</ele>
				<time>2025-06-21T15:46:12.681Z</time>
			</trkpt>
			<trkpt lat="51.76087" lon="7.39571">
				<ele>106</ele>
				<time>2025-06-21T15:46:26.019Z</time>
			</trkpt>
			<trkpt lat="51.76072" lon="7.3958">
				<ele>106.4</ele>
				<time>2025-06-21T15:46:27.520Z</time>
			</trkpt>
			<trkpt lat="51.76027" lon="7.3962">
				<ele>106</ele>
				<time>2025-06-21T15:46:31.507Z</time>
			</trkpt>
			<trkpt lat="51.75971" lon="7.39675">
				<ele>107.04</ele>
				<time>2025-06-21T15:46:34.847Z</time>
			</trkpt>
			<trkpt lat="51.75932" lon="7.39705">
				<ele>109.17</ele>
				<time>2025-06-21T15:46:36.041Z</time>
			</trkpt>
			<trkpt lat="51.75796" lon="7.39794">
				<ele>108</ele>
				<time>2025-06-21T15:46:34.746Z</time>
			</trkpt>
			<trkpt lat="51.75753" lon="7.39818">
				<ele>107.07</ele>
				<time>2025-06-21T15:46:32.845Z</time>
			</trkpt>
			<trkpt lat="51.74548" lon="7.4024">
				<ele>108.52</ele>
				<time>2025-06-21T15:44:27.063Z</time>
			</trkpt>
			<trkpt lat="51.74495" lon="7.40247">
				<ele>108.5</ele>
				<time>2025-06-21T15:44:26.366Z</time>
			</trkpt>
			<trkpt lat="51.74472" lon="7.40246">
				<ele>110.24</ele>
				<time>2025-06-21T15:44:26.385Z</time>
			</trkpt>
			<trkpt lat="51.74432" lon="7.40239">
				<ele>108.92</ele>
				<time>2025-06-21T15:44:26.912Z</time>
			</trkpt>
			<trkpt lat="51.74411" lon="7.40232">
				<ele>108.08</ele>
				<time>2025-06-21T15:44:27.459Z</time>
			</trkpt>
			<trkpt lat="51.73976" lon="7.40022">
				<ele>89.28</ele>
				<time>2025-06-21T15:45:32.120Z</time>
			</trkpt>
			<trkpt lat="51.73957" lon="7.40017">
				<ele>89</ele>
				<time>2025-06-21T15:45:37.496Z</time>
			</trkpt>
			<trkpt lat="51.73919" lon="7.40012">
				<ele>89</ele>
				<time>2025-06-21T15:45:48.873Z</time>
			</trkpt>
			<trkpt lat="51.73884" lon="7.40015">
				<ele>88.85</ele>
				<time>2025-06-21T15:46:00.208Z</time>
			</trkpt>
			<trkpt lat="51.73845" lon="7.40028">
				<ele>87.43</ele>
				<time>2025-06-21T15:46:14.135Z</time>
			</trkpt>
			<trkpt lat="51.73829" lon="7.40035">
				<ele>86.85</ele>
				<time>2025-06-21T15:46:20.269Z</time>
			</trkpt>
			<trkpt lat="51.73793" lon="7.4006">
				<ele>85.11</ele>
				<time>2025-06-21T15:46:35.574Z</time>
			</trkpt>
			<trkpt lat="51.73677" lon="7.40176">
				<ele>82.61</ele>
				<time>2025-06-21T15:47:38.080Z</time>
			</trkpt>
			<trkpt lat="51.73636" lon="7.40208">
				<ele>81.95</ele>
				<time>2025-06-21T15:48:02.291Z</time>
			</trkpt>
			<trkpt lat="51.73586" lon="7.40238">
				<ele>81</ele>
				<time>2025-06-21T15:48:32.889Z</time>
			</trkpt>
			<trkpt lat="51.73545" lon="7.40254">
				<ele>80.13</ele>
				<time>2025-06-21T15:48:58.846Z</time>
			</trkpt>
			<trkpt lat="51.73515" lon="7.40263">
				<ele>78.56</ele>
				<time>2025-06-21T15:49:18.616Z</time>
			</trkpt>
			<trkpt lat="51.73487" lon="7.40268">
				<ele>77.84</ele>
				<time>2025-06-21T15:49:37.624Z</time>
			</trkpt>
			<trkpt lat="51.73429" lon="7.40271">
				<ele>76.21</ele>
				<time>2025-06-21T15:50:19.115Z</time>
			</trkpt>
			<trkpt lat="51.73396" lon="7.40268">
				<ele>74.93</ele>
				<time>2025-06-21T15:50:44.184Z</time>
			</trkpt>
			<trkpt lat="51.73358" lon="7.40258">
				<ele>73.63</ele>
				<time>2025-06-21T15:51:14.732Z</time>
			</trkpt>
			<trkpt lat="51.73356" lon="7.40241">
				<ele>72.69</ele>
				<time>2025-06-21T15:51:23.496Z</time>
			</trkpt>
			<trkpt lat="51.73337" lon="7.40166">
				<ele>72.97</ele>
				<time>2025-06-21T15:52:02.059Z</time>
			</trkpt>
			<trkpt lat="51.73356" lon="7.40241">
				<ele>72.69</ele>
				<time>2025-06-21T15:52:20.411Z</time>
			</trkpt>
			<trkpt lat="51.73358" lon="7.40258">
				<ele>73.63</ele>
				<time>2025-06-21T15:52:21.924Z</time>
			</trkpt>
			<trkpt lat="51.73302" lon="7.40237">
				<ele>71.33</ele>
				<time>2025-06-21T15:52:28.065Z</time>
			</trkpt>
			<trkpt lat="51.73263" lon="7.40214">
				<ele>67.99</ele>
				<time>2025-06-21T15:52:32.480Z</time>
			</trkpt>
			<trkpt lat="51.73176" lon="7.40154">
				<ele>66.15</ele>
				<time>2025-06-21T15:52:42.653Z</time>
			</trkpt>
			<trkpt lat="51.73151" lon="7.40139">
				<ele>66.01</ele>
				<time>2025-06-21T15:52:45.547Z</time>
			</trkpt>
			<trkpt lat="51.73128" lon="7.40129">
				<ele>65.27</ele>
				<time>2025-06-21T15:52:48.142Z</time>
			</trkpt>
			<trkpt lat="51.73103" lon="7.40121">
				<ele>64.45</ele>
				<time>2025-06-21T15:52:50.928Z</time>
			</trkpt>
			<trkpt lat="51.73068" lon="7.40114">
				<ele>64.77</ele>
				<time>2025-06-21T15:52:54.800Z</time>
			</trkpt>
			<trkpt lat="51.7302" lon="7.40114">
				<ele>64.33</ele>
				<time>2025-06-21T15:53:00.099Z</time>
			</trkpt>
			<trkpt lat="51.72915" lon="7.40135">
				<ele>61.87</ele>
				<time>2025-06-21T15:53:11.889Z</time>
			</trkpt>
			<trkpt lat="51.72611" lon="7.40202">
				<ele>56.3</ele>
				<time>2025-06-21T15:53:46.794Z</time>
			</trkpt>
			<trkpt lat="51.72521" lon="7.4022">
				<ele>57.63</ele>
				<time>2025-06-21T15:53:57.269Z</time>
			</trkpt>
			<trkpt lat="51.72473" lon="7.40233">
				<ele>61.08</ele>
				<time>2025-06-21T15:54:02.913Z</time>
			</trkpt>
			<trkpt lat="51.72276" lon="7.40336">
				<ele>57.82</ele>
				<time>2025-06-21T15:54:27.051Z</time>
			</trkpt>
			<trkpt lat="51.72224" lon="7.4037">
				<ele>56.04</ele>
				<time>2025-06-21T15:54:33.614Z</time>
			</trkpt>
			<trkpt lat="51.722" lon="7.4039">
				<ele>56</ele>
				<time>2025-06-21T15:54:36.775Z</time>
			</trkpt>
			<trkpt lat="51.72148" lon="7.40448">
				<ele>55</ele>
				<time>2025-06-21T15:54:44.177Z</time>
			</trkpt>
			<trkpt lat="51.721" lon="7.40513">
				<ele>53</ele>
				<time>2025-06-21T15:54:51.515Z</time>
			</trkpt>
			<trkpt lat="51.72093" lon="7.40525">
				<ele>53</ele>
				<time>2025-06-21T15:54:52.710Z</time>
			</trkpt>
			<trkpt lat="51.72045" lon="7.40675">
				<ele>55.34</ele>
				<time>2025-06-21T15:55:04.949Z</time>
			</trkpt>
			<trkpt lat="51.72038" lon="7.40688">
				<ele>55.63</ele>
				<time>2025-06-21T15:55:06.197Z</time>
			</trkpt>
			<trkpt lat="51.72028" lon="7.40696">
				<ele>55.97</ele>
				<time>2025-06-21T15:55:07.501Z</time>
			</trkpt>
			<trkpt lat="51.71939" lon="7.40757">
				<ele>52.74</ele>
				<time>2025-06-21T15:55:18.785Z</time>
			</trkpt>
			<trkpt lat="51.7193" lon="7.40764">
				<ele>52.45</ele>
				<time>2025-06-21T15:55:19.949Z</time>
			</trkpt>
			<trkpt lat="51.71917" lon="7.40781">
				<ele>52</ele>
				<time>2025-06-21T15:55:21.897Z</time>
			</trkpt>
			<trkpt lat="51.71911" lon="7.40786">
				<ele>52</ele>
				<time>2025-06-21T15:55:22.683Z</time>
			</trkpt>
			<trkpt lat="51.71903" lon="7.40789">
				<ele>52</ele>
				<time>2025-06-21T15:55:23.638Z</time>
			</trkpt>
			<trkpt lat="51.719" lon="7.40779">
				<ele>52</ele>
				<time>2025-06-21T15:55:24.439Z</time>
			</trkpt>
			<trkpt lat="51.71702" lon="7.40329">
				<ele>50.15</ele>
				<time>2025-06-21T15:56:03.886Z</time>
			</trkpt>
			<trkpt lat="51.71693" lon="7.40321">
				<ele>49.53</ele>
				<time>2025-06-21T15:56:05.061Z</time>
			</trkpt>
			<trkpt lat="51.71683" lon="7.40315">
				<ele>49.21</ele>
				<time>2025-06-21T15:56:06.280Z</time>
			</trkpt>
			<trkpt lat="51.71675" lon="7.40305">
				<ele>49</ele>
				<time>2025-06-21T15:56:07.435Z</time>
			</trkpt>
			<trkpt lat="51.71683" lon="7.40274">
				<ele>49.1</ele>
				<time>2025-06-21T15:56:09.809Z</time>
			</trkpt>
			<trkpt lat="51.71684" lon="7.40246">
				<ele>50</ele>
				<time>2025-06-21T15:56:11.790Z</time>
			</trkpt>
			<trkpt lat="51.71651" lon="7.40208">
				<ele>50.3</ele>
				<time>2025-06-21T15:56:16.408Z</time>
			</trkpt>
			<trkpt lat="51.71643" lon="7.40193">
				<ele>50.63</ele>
				<time>2025-06-21T15:56:17.804Z</time>
			</trkpt>
			<trkpt lat="51.71597" lon="7.4008">
				<ele>50.9</ele>
				<time>2025-06-21T15:56:27.347Z</time>
			</trkpt>
			<trkpt lat="51.71572" lon="7.40029">
				<ele>52.73</ele>
				<time>2025-06-21T15:56:31.945Z</time>
			</trkpt>
			<trkpt lat="51.71412" lon="7.39673">
				<ele>50.13</ele>
				<time>2025-06-21T15:57:03.433Z</time>
			</trkpt>
			<trkpt lat="51.714" lon="7.39686">
				<ele>50.58</ele>
				<time>2025-06-21T15:57:05.133Z</time>
			</trkpt>
			<trkpt lat="51.71388" lon="7.39693">
				<ele>50.94</ele>
				<time>2025-06-21T15:57:06.637Z</time>
			</trkpt>
			<trkpt lat="51.71371" lon="7.39694">
				<ele>49.73</ele>
				<time>2025-06-21T15:57:08.645Z</time>
			</trkpt>
			<trkpt lat="51.71342" lon="7.3968">
				<ele>47.67</ele>
				<time>2025-06-21T15:57:12.223Z</time>
			</trkpt>
			<trkpt lat="51.71327" lon="7.3968">
				<ele>46.88</ele>
				<time>2025-06-21T15:57:13.995Z</time>
			</trkpt>
			<trkpt lat="51.71241" lon="7.39705">
				<ele>46.3</ele>
				<time>2025-06-21T15:57:24.222Z</time>
			</trkpt>
			<trkpt lat="51.71163" lon="7.39747">
				<ele>48.12</ele>
				<time>2025-06-21T15:57:33.523Z</time>
			</trkpt>
			<trkpt lat="51.71148" lon="7.39763">
				<ele>48.66</ele>
				<time>2025-06-21T15:57:35.493Z</time>
			</trkpt>
			<trkpt lat="51.71144" lon="7.39772">
				<ele>48.81</ele>
				<time>2025-06-21T15:57:36.237Z</time>
			</trkpt>
			<trkpt lat="51.71111" lon="7.3971">
				<ele>47.16</ele>
				<time>2025-06-21T15:57:41.596Z</time>
			</trkpt>
			<trkpt lat="51.71076" lon="7.39652">
				<ele>45.12</ele>
				<time>2025-06-21T15:57:46.708Z</time>
			</trkpt>
			<trkpt lat="51.71044" lon="7.39607">
				<ele>46</ele>
				<time>2025-06-21T15:57:50.929Z</time>
			</trkpt>
			<trkpt lat="51.71012" lon="7.39565">
				<ele>46.56</ele>
				<time>2025-06-21T15:57:54.979Z</time>
			</trkpt>
			<trkpt lat="51.70903" lon="7.39439">
				<ele>47.63</ele>
				<time>2025-06-21T15:58:08.242Z</time>
			</trkpt>
			<trkpt lat="51.7078" lon="7.39301">
				<ele>47</ele>
				<time>2025-06-21T15:58:24.447Z</time>
			</trkpt>
			<trkpt lat="51.70761" lon="7.39282">
				<ele>47</ele>
				<time>2025-06-21T15:58:27.094Z</time>
			</trkpt>
			<trkpt lat="51.70732" lon="7.39261">
				<ele>47.59</ele>
				<time>2025-06-21T15:58:30.990Z</time>
			</trkpt>
			<trkpt lat="51.70722" lon="7.39256">
				<ele>47.76</ele>
				<time>2025-06-21T15:58:32.310Z</time>
			</trkpt>
			<trkpt lat="51.70703" lon="7.39251">
				<ele>47.94</ele>
				<time>2025-06-21T15:58:34.788Z</time>
			</trkpt>
			<trkpt lat="51.70702" lon="7.39235">
				<ele>48</ele>
				<time>2025-06-21T15:58:36.097Z</time>
			</trkpt>
			<trkpt lat="51.70695" lon="7.39223">
				<ele>48</ele>
				<time>2025-06-21T15:58:37.458Z</time>
			</trkpt>
			<trkpt lat="51.70691" lon="7.3922">
				<ele>47.88</ele>
				<time>2025-06-21T15:58:38.052Z</time>
			</trkpt>
			<trkpt lat="51.7068" lon="7.39221">
				<ele>47.52</ele>
				<time>2025-06-21T15:58:39.552Z</time>
			</trkpt>
			<trkpt lat="51.70672" lon="7.39231">
				<ele>47.2</ele>
				<time>2025-06-21T15:58:40.949Z</time>
			</trkpt>
			<trkpt lat="51.70668" lon="7.39246">
				<ele>47.08</ele>
				<time>2025-06-21T15:58:42.363Z</time>
			</trkpt>
			<trkpt lat="51.70671" lon="7.39262">
				<ele>46.72</ele>
				<time>2025-06-21T15:58:43.829Z</time>
			</trkpt>
			<trkpt lat="51.70642" lon="7.39286">
				<ele>46</ele>
				<time>2025-06-21T15:58:48.550Z</time>
			</trkpt>
			<trkpt lat="51.70582" lon="7.39297">
				<ele>47.02</ele>
				<time>2025-06-21T15:58:57.671Z</time>
			</trkpt>
			<trkpt lat="51.70564" lon="7.39291">
				<ele>47.67</ele>
				<time>2025-06-21T15:59:00.526Z</time>
			</trkpt>
			<trkpt lat="51.70528" lon="7.39264">
				<ele>49.5</ele>
				<time>2025-06-21T15:59:06.791Z</time>
			</trkpt>
			<trkpt lat="51.70506" lon="7.39263">
				<ele>49.47</ele>
				<time>2025-06-21T15:59:10.310Z</time>
			</trkpt>
			<trkpt lat="51.70316" lon="7.39154">
				<ele>50.16</ele>
				<time>2025-06-21T15:59:42.797Z</time>
			</trkpt>
			<trkpt lat="51.70171" lon="7.39062">
				<ele>49.79</ele>
				<time>2025-06-21T16:00:05.940Z</time>
			</trkpt>
			<trkpt lat="51.70076" lon="7.39001">
				<ele>49</ele>
				<time>2025-06-21T16:00:19.052Z</time>
			</trkpt>
			<trkpt lat="51.70021" lon="7.38945">
				<ele>50.76</ele>
				<time>2025-06-21T16:00:26.643Z</time>
			</trkpt>
			<trkpt lat="51.69944" lon="7.38846">
				<ele>50</ele>
				<time>2025-06-21T16:00:37.519Z</time>
			</trkpt>
			<trkpt lat="51.69934" lon="7.38835">
				<ele>50.35</ele>
				<time>2025-06-21T16:00:38.832Z</time>
			</trkpt>
			<trkpt lat="51.69923" lon="7.38827">
				<ele>50.6</ele>
				<time>2025-06-21T16:00:40.140Z</time>
			</trkpt>
			<trkpt lat="51.6991" lon="7.38826">
				<ele>50.57</ele>
				<time>2025-06-21T16:00:41.551Z</time>
			</trkpt>
			<trkpt lat="51.6985" lon="7.38845">
				<ele>50</ele>
				<time>2025-06-21T16:00:48.226Z</time>
			</trkpt>
			<trkpt lat="51.69782" lon="7.38276">
				<ele>55.21</ele>
				<time>2025-06-21T16:01:29.692Z</time>
			</trkpt>
			<trkpt lat="51.69781" lon="7.38259">
				<ele>55.79</ele>
				<time>2025-06-21T16:01:30.895Z</time>
			</trkpt>
			<trkpt lat="51.69782" lon="7.38246">
				<ele>56.27</ele>
				<time>2025-06-21T16:01:31.814Z</time>
			</trkpt>
			<trkpt lat="51.69788" lon="7.38231">
				<ele>56.79</ele>
				<time>2025-06-21T16:01:33.060Z</time>
			</trkpt>
			<trkpt lat="51.69806" lon="7.38204">
				<ele>57</ele>
				<time>2025-06-21T16:01:35.804Z</time>
			</trkpt>
			<trkpt lat="51.69813" lon="7.38211">
				<ele>57</ele>
				<time>2025-06-21T16:01:36.715Z</time>
			</trkpt>
			<trkpt lat="51.69822" lon="7.38213">
				<ele>57</ele>
				<time>2025-06-21T16:01:37.715Z</time>
			</trkpt>
			<trkpt lat="51.6983" lon="7.38208">
				<ele>57</ele>
				<time>2025-06-21T16:01:38.654Z</time>
			</trkpt>
			<trkpt lat="51.69836" lon="7.38199">
				<ele>56.97</ele>
				<time>2025-06-21T16:01:39.546Z</time>
			</trkpt>
			<trkpt lat="51.69839" lon="7.38186">
				<ele>57.05</ele>
				<time>2025-06-21T16:01:40.477Z</time>
			</trkpt>
			<trkpt lat="51.69839" lon="7.3818">
				<ele>57.11</ele>
				<time>2025-06-21T16:01:40.878Z</time>
			</trkpt>
			<trkpt lat="51.69834" lon="7.38161">
				<ele>57.23</ele>
				<time>2025-06-21T16:01:42.251Z</time>
			</trkpt>
			<trkpt lat="51.69828" lon="7.38153">
				<ele>57.47</ele>
				<time>2025-06-21T16:01:43.081Z</time>
			</trkpt>
			<trkpt lat="51.69819" lon="7.3815">
				<ele>57.56</ele>
				<time>2025-06-21T16:01:44.057Z</time>
			</trkpt>
			<trkpt lat="51.6982" lon="7.38083">
				<ele>59.54</ele>
				<time>2025-06-21T16:01:48.397Z</time>
			</trkpt>
			<trkpt lat="51.69823" lon="7.38021">
				<ele>60</ele>
				<time>2025-06-21T16:01:52.328Z</time>
			</trkpt>
			<trkpt lat="51.69827" lon="7.3797">
				<ele>59.78</ele>
				<time>2025-06-21T16:01:55.510Z</time>
			</trkpt>
			<trkpt lat="51.69833" lon="7.37912">
				<ele>59.04</ele>
				<time>2025-06-21T16:01:59.079Z</time>
			</trkpt>
			<trkpt lat="51.69844" lon="7.3784">
				<ele>59.8</ele>
				<time>2025-06-21T16:02:03.474Z</time>
			</trkpt>
			<trkpt lat="51.69865" lon="7.37733">
				<ele>60</ele>
				<time>2025-06-21T16:02:09.916Z</time>
			</trkpt>
			<trkpt lat="51.69905" lon="7.37574">
				<ele>57.57</ele>
				<time>2025-06-21T16:02:19.319Z</time>
			</trkpt>
			<trkpt lat="51.69944" lon="7.37442">
				<ele>56.93</ele>
				<time>2025-06-21T16:02:26.955Z</time>
			</trkpt>
			<trkpt lat="51.70026" lon="7.37187">
				<ele>57.22</ele>
				<time>2025-06-21T16:02:41.134Z</time>
			</trkpt>
			<trkpt lat="51.70072" lon="7.3704">
				<ele>58.1</ele>
				<time>2025-06-21T16:02:48.878Z</time>
			</trkpt>
			<trkpt lat="51.70077" lon="7.37043">
				<ele>57.78</ele>
				<time>2025-06-21T16:02:49.277Z</time>
			</trkpt>
			<trkpt lat="51.70086" lon="7.37043">
				<ele>57.36</ele>
				<time>2025-06-21T16:02:49.949Z</time>
			</trkpt>
			<trkpt lat="51.70095" lon="7.37035">
				<ele>57.41</ele>
				<time>2025-06-21T16:02:50.714Z</time>
			</trkpt>
			<trkpt lat="51.70098" lon="7.37027">
				<ele>57.45</ele>
				<time>2025-06-21T16:02:51.144Z</time>
			</trkpt>
			<trkpt lat="51.70099" lon="7.37018">
				<ele>57.41</ele>
				<time>2025-06-21T16:02:51.565Z</time>
			</trkpt>
			<trkpt lat="51.70098" lon="7.37008">
				<ele>57.43</ele>
				<time>2025-06-21T16:02:52.030Z</time>
			</trkpt>
			<trkpt lat="51.70096" lon="7.37">
				<ele>57.53</ele>
				<time>2025-06-21T16:02:52.426Z</time>
			</trkpt>
			<trkpt lat="51.70092" lon="7.36993">
				<ele>57.68</ele>
				<time>2025-06-21T16:02:52.862Z</time>
			</trkpt>
			<trkpt lat="51.70097" lon="7.36982">
				<ele>57.49</ele>
				<time>2025-06-21T16:02:53.486Z</time>
			</trkpt>
			<trkpt lat="51.70291" lon="7.36557">
				<ele>55.5</ele>
				<time>2025-06-21T16:03:16.723Z</time>
			</trkpt>
			<trkpt lat="51.70326" lon="7.36476">
				<ele>53.41</ele>
				<time>2025-06-21T16:03:20.893Z</time>
			</trkpt>
			<trkpt lat="51.70359" lon="7.36381">
				<ele>52.01</ele>
				<time>2025-06-21T16:03:25.433Z</time>
			</trkpt>
			<trkpt lat="51.70374" lon="7.3633">
				<ele>50.92</ele>
				<time>2025-06-21T16:03:27.764Z</time>
			</trkpt>
			<trkpt lat="51.70385" lon="7.36281">
				<ele>49.12</ele>
				<time>2025-06-21T16:03:29.902Z</time>
			</trkpt>
			<trkpt lat="51.70393" lon="7.36245">
				<ele>48.68</ele>
				<time>2025-06-21T16:03:31.463Z</time>
			</trkpt>
			<trkpt lat="51.70399" lon="7.36199">
				<ele>49.02</ele>
				<time>2025-06-21T16:03:33.373Z</time>
			</trkpt>
			<trkpt lat="51.70404" lon="7.36155">
				<ele>49.24</ele>
				<time>2025-06-21T16:03:35.181Z</time>
			</trkpt>
			<trkpt lat="51.7041" lon="7.3606">
				<ele>50.2</ele>
				<time>2025-06-21T16:03:39.013Z</time>
			</trkpt>
			<trkpt lat="51.70411" lon="7.35953">
				<ele>50.19</ele>
				<time>2025-06-21T16:03:43.264Z</time>
			</trkpt>
			<trkpt lat="51.70399" lon="7.35725">
				<ele>48.37</ele>
				<time>2025-06-21T16:03:52.211Z</time>
			</trkpt>
			<trkpt lat="51.70399" lon="7.35676">
				<ele>48.38</ele>
				<time>2025-06-21T16:03:54.105Z</time>
			</trkpt>
			<trkpt lat="51.70403" lon="7.35592">
				<ele>48.17</ele>
				<time>2025-06-21T16:03:57.343Z</time>
			</trkpt>
			<trkpt lat="51.70414" lon="7.35499">
				<ele>49.02</ele>
				<time>2025-06-21T16:04:00.957Z</time>
			</trkpt>
			<trkpt lat="51.70435" lon="7.35397">
				<ele>50</ele>
				<time>2025-06-21T16:04:05.032Z</time>
			</trkpt>
			<trkpt lat="51.70454" lon="7.3533">
				<ele>50.82</ele>
				<time>2025-06-21T16:04:07.809Z</time>
			</trkpt>
			<trkpt lat="51.70484" lon="7.35251">
				<ele>54.49</ele>
				<time>2025-06-21T16:04:11.285Z</time>
			</trkpt>
			<trkpt lat="51.70548" lon="7.35102">
				<ele>58.31</ele>
				<time>2025-06-21T16:04:18.039Z</time>
			</trkpt>
			<trkpt lat="51.70568" lon="7.3504">
				<ele>60.26</ele>
				<time>2025-06-21T16:04:20.629Z</time>
			</trkpt>
			<trkpt lat="51.70581" lon="7.3499">
				<ele>60.62</ele>
				<time>2025-06-21T16:04:22.633Z</time>
			</trkpt>
			<trkpt lat="51.7059" lon="7.34943">
				<ele>59.47</ele>
				<time>2025-06-21T16:04:24.449Z</time>
			</trkpt>
			<trkpt lat="51.70594" lon="7.34904">
				<ele>57.73</ele>
				<time>2025-06-21T16:04:25.906Z</time>
			</trkpt>
			<trkpt lat="51.70597" lon="7.3485">
				<ele>55.03</ele>
				<time>2025-06-21T16:04:27.902Z</time>
			</trkpt>
			<trkpt lat="51.70596" lon="7.34788">
				<ele>49.99</ele>
				<time>2025-06-21T16:04:30.182Z</time>
			</trkpt>
			<trkpt lat="51.70584" lon="7.3449">
				<ele>49.34</ele>
				<time>2025-06-21T16:04:41.134Z</time>
			</trkpt>
			<trkpt lat="51.70576" lon="7.3437">
				<ele>50.65</ele>
				<time>2025-06-21T16:04:45.558Z</time>
			</trkpt>
			<trkpt lat="51.70565" lon="7.34253">
				<ele>50.83</ele>
				<time>2025-06-21T16:04:49.901Z</time>
			</trkpt>
			<trkpt lat="51.70515" lon="7.33809">
				<ele>47.37</ele>
				<time>2025-06-21T16:05:06.580Z</time>
			</trkpt>
			<trkpt lat="51.70384" lon="7.32616">
				<ele>56.05</ele>
				<time>2025-06-21T16:05:53.775Z</time>
			</trkpt>
			<trkpt lat="51.70369" lon="7.32471">
				<ele>54.97</ele>
				<time>2025-06-21T16:05:59.889Z</time>
			</trkpt>
			<trkpt lat="51.70367" lon="7.32435">
				<ele>53.68</ele>
				<time>2025-06-21T16:06:01.409Z</time>
			</trkpt>
			<trkpt lat="51.70369" lon="7.32376">
				<ele>52.72</ele>
				<time>2025-06-21T16:06:03.906Z</time>
			</trkpt>
			<trkpt lat="51.70376" lon="7.32306">
				<ele>50.87</ele>
				<time>2025-06-21T16:06:06.926Z</time>
			</trkpt>
			<trkpt lat="51.70414" lon="7.32015">
				<ele>46.08</ele>
				<time>2025-06-21T16:06:19.854Z</time>
			</trkpt>
			<trkpt lat="51.70429" lon="7.3175">
				<ele>48.97</ele>
				<time>2025-06-21T16:06:31.784Z</time>
			</trkpt>
			<trkpt lat="51.70434" lon="7.317">
				<ele>51.22</ele>
				<time>2025-06-21T16:06:34.093Z</time>
			</trkpt>
			<trkpt lat="51.7044" lon="7.31655">
				<ele>52.47</ele>
				<time>2025-06-21T16:06:36.203Z</time>
			</trkpt>
			<trkpt lat="51.70456" lon="7.31584">
				<ele>51.03</ele>
				<time>2025-06-21T16:06:39.687Z</time>
			</trkpt>
			<trkpt lat="51.70489" lon="7.31563">
				<ele>50.36</ele>
				<time>2025-06-21T16:06:42.346Z</time>
			</trkpt>
			<trkpt lat="51.70499" lon="7.3156">
				<ele>50.01</ele>
				<time>2025-06-21T16:06:43.111Z</time>
			</trkpt>
			<trkpt lat="51.70507" lon="7.31554">
				<ele>49.75</ele>
				<time>2025-06-21T16:06:43.775Z</time>
			</trkpt>
			<trkpt lat="51.70699" lon="7.31496">
				<ele>52.12</ele>
				<time>2025-06-21T16:06:58.733Z</time>
			</trkpt>
			<trkpt lat="51.70756" lon="7.31491">
				<ele>52.3</ele>
				<time>2025-06-21T16:07:03.189Z</time>
			</trkpt>
			<trkpt lat="51.70872" lon="7.31494">
				<ele>58.58</ele>
				<time>2025-06-21T16:07:12.358Z</time>
			</trkpt>
			<trkpt lat="51.70917" lon="7.31492">
				<ele>59.25</ele>
				<time>2025-06-21T16:07:15.955Z</time>
			</trkpt>
			<trkpt lat="51.70939" lon="7.31488">
				<ele>59.41</ele>
				<time>2025-06-21T16:07:17.732Z</time>
			</trkpt>
			<trkpt lat="51.70975" lon="7.31475">
				<ele>59.76</ele>
				<time>2025-06-21T16:07:20.705Z</time>
			</trkpt>
			<trkpt lat="51.7099" lon="7.31467">
				<ele>59.35</ele>
				<time>2025-06-21T16:07:21.982Z</time>
			</trkpt>
			<trkpt lat="51.71008" lon="7.31456">
				<ele>58.67</ele>
				<time>2025-06-21T16:07:23.542Z</time>
			</trkpt>
			<trkpt lat="51.71036" lon="7.31434">
				<ele>58.56</ele>
				<time>2025-06-21T16:07:26.073Z</time>
			</trkpt>
			<trkpt lat="51.71071" lon="7.314">
				<ele>59</ele>
				<time>2025-06-21T16:07:29.409Z</time>
			</trkpt>
			<trkpt lat="51.71099" lon="7.31365">
				<ele>59.09</ele>
				<time>2025-06-21T16:07:32.314Z</time>
			</trkpt>
			<trkpt lat="51.71168" lon="7.3127">
				<ele>52.54</ele>
				<time>2025-06-21T16:07:39.809Z</time>
			</trkpt>
			<trkpt lat="51.71212" lon="7.31218">
				<ele>51.98</ele>
				<time>2025-06-21T16:07:44.354Z</time>
			</trkpt>
			<trkpt lat="51.71265" lon="7.3117">
				<ele>51.85</ele>
				<time>2025-06-21T16:07:49.450Z</time>
			</trkpt>
			<trkpt lat="51.71463" lon="7.31003">
				<ele>55.3</ele>
				<time>2025-06-21T16:08:08.459Z</time>
			</trkpt>
			<trkpt lat="51.71613" lon="7.30879">
				<ele>54.26</ele>
				<time>2025-06-21T16:08:23.065Z</time>
			</trkpt>
			<trkpt lat="51.71745" lon="7.30762">
				<ele>55.56</ele>
				<time>2025-06-21T16:08:36.291Z</time>
			</trkpt>
			<trkpt lat="51.71837" lon="7.30687">
				<ele>54.85</ele>
				<time>2025-06-21T16:08:45.430Z</time>
			</trkpt>
			<trkpt lat="51.71865" lon="7.30662">
				<ele>53.98</ele>
				<time>2025-06-21T16:08:48.281Z</time>
			</trkpt>
			<trkpt lat="51.71892" lon="7.30634">
				<ele>53.86</ele>
				<time>2025-06-21T16:08:51.146Z</time>
			</trkpt>
			<trkpt lat="51.71975" lon="7.30531">
				<ele>48.74</ele>
				<time>2025-06-21T16:09:00.536Z</time>
			</trkpt>
			<trkpt lat="51.7206" lon="7.30411">
				<ele>41</ele>
				<time>2025-06-21T16:09:10.731Z</time>
			</trkpt>
			<trkpt lat="51.72094" lon="7.30359">
				<ele>42.4</ele>
				<time>2025-06-21T16:09:14.979Z</time>
			</trkpt>
			<trkpt lat="51.72117" lon="7.30316">
				<ele>42.38</ele>
				<time>2025-06-21T16:09:18.177Z</time>
			</trkpt>
			<trkpt lat="51.72376" lon="7.29787">
				<ele>43</ele>
				<time>2025-06-21T16:09:56.529Z</time>
			</trkpt>
			<trkpt lat="51.72394" lon="7.29742">
				<ele>41.95</ele>
				<time>2025-06-21T16:09:59.602Z</time>
			</trkpt>
			<trkpt lat="51.7257" lon="7.29205">
				<ele>43.71</ele>
				<time>2025-06-21T16:10:34.621Z</time>
			</trkpt>
			<trkpt lat="51.72619" lon="7.29067">
				<ele>46.47</ele>
				<time>2025-06-21T16:10:43.825Z</time>
			</trkpt>
			<trkpt lat="51.72804" lon="7.28505">
				<ele>53.03</ele>
				<time>2025-06-21T16:11:20.685Z</time>
			</trkpt>
			<trkpt lat="51.72865" lon="7.2833">
				<ele>52.23</ele>
				<time>2025-06-21T16:11:32.298Z</time>
			</trkpt>
			<trkpt lat="51.72884" lon="7.28248">
				<ele>54</ele>
				<time>2025-06-21T16:11:37.354Z</time>
			</trkpt>
			<trkpt lat="51.72894" lon="7.28197">
				<ele>54.19</ele>
				<time>2025-06-21T16:11:40.441Z</time>
			</trkpt>
			<trkpt lat="51.729" lon="7.28162">
				<ele>54.35</ele>
				<time>2025-06-21T16:11:42.536Z</time>
			</trkpt>
			<trkpt lat="51.72902" lon="7.28107">
				<ele>53.87</ele>
				<time>2025-06-21T16:11:45.712Z</time>
			</trkpt>
			<trkpt lat="51.72905" lon="7.27957">
				<ele>53.54</ele>
				<time>2025-06-21T16:11:54.350Z</time>
			</trkpt>
			<trkpt lat="51.72917" lon="7.27749">
				<ele>50.99</ele>
				<time>2025-06-21T16:12:06.339Z</time>
			</trkpt>
			<trkpt lat="51.72918" lon="7.27692">
				<ele>52.83</ele>
				<time>2025-06-21T16:12:09.603Z</time>
			</trkpt>
			<trkpt lat="51.72913" lon="7.27623">
				<ele>50.02</ele>
				<time>2025-06-21T16:12:13.574Z</time>
			</trkpt>
			<trkpt lat="51.72909" lon="7.27589">
				<ele>48.98</ele>
				<time>2025-06-21T16:12:15.550Z</time>
			</trkpt>
			<trkpt lat="51.72899" lon="7.27541">
				<ele>50.37</ele>
				<time>2025-06-21T16:12:18.439Z</time>
			</trkpt>
			<trkpt lat="51.72852" lon="7.27349">
				<ele>49.62</ele>
				<time>2025-06-21T16:12:30.179Z</time>
			</trkpt>
			<trkpt lat="51.72837" lon="7.27271">
				<ele>47.31</ele>
				<time>2025-06-21T16:12:34.805Z</time>
			</trkpt>
			<trkpt lat="51.72831" lon="7.2722">
				<ele>44.99</ele>
				<time>2025-06-21T16:12:37.740Z</time>
			</trkpt>
			<trkpt lat="51.72826" lon="7.27142">
				<ele>44.97</ele>
				<time>2025-06-21T16:12:42.164Z</time>
			</trkpt>
			<trkpt lat="51.72832" lon="7.26257">
				<ele>52.72</ele>
				<time>2025-06-21T16:13:31.229Z</time>
			</trkpt>
			<trkpt lat="51.72832" lon="7.26111">
				<ele>52</ele>
				<time>2025-06-21T16:13:39.141Z</time>
			</trkpt>
			<trkpt lat="51.72824" lon="7.26038">
				<ele>51.98</ele>
				<time>2025-06-21T16:13:43.136Z</time>
			</trkpt>
			<trkpt lat="51.72712" lon="7.25618">
				<ele>49.32</ele>
				<time>2025-06-21T16:14:07.409Z</time>
			</trkpt>
			<trkpt lat="51.72706" lon="7.25593">
				<ele>49.16</ele>
				<time>2025-06-21T16:14:08.812Z</time>
			</trkpt>
			<trkpt lat="51.72701" lon="7.25564">
				<ele>48.98</ele>
				<time>2025-06-21T16:14:10.384Z</time>
			</trkpt>
			<trkpt lat="51.72661" lon="7.24997">
				<ele>50.98</ele>
				<time>2025-06-21T16:14:39.566Z</time>
			</trkpt>
			<trkpt lat="51.7266" lon="7.24962">
				<ele>50.68</ele>
				<time>2025-06-21T16:14:41.318Z</time>
			</trkpt>
			<trkpt lat="51.72661" lon="7.24925">
				<ele>50.65</ele>
				<time>2025-06-21T16:14:43.164Z</time>
			</trkpt>
			<trkpt lat="51.72664" lon="7.24901">
				<ele>50.83</ele>
				<time>2025-06-21T16:14:44.381Z</time>
			</trkpt>
			<trkpt lat="51.72673" lon="7.24854">
				<ele>52.22</ele>
				<time>2025-06-21T16:14:46.820Z</time>
			</trkpt>
			<trkpt lat="51.72682" lon="7.2482">
				<ele>52.81</ele>
				<time>2025-06-21T16:14:48.646Z</time>
			</trkpt>
			<trkpt lat="51.72688" lon="7.24784">
				<ele>53.54</ele>
				<time>2025-06-21T16:14:50.481Z</time>
			</trkpt>
			<trkpt lat="51.72689" lon="7.24741">
				<ele>52.83</ele>
				<time>2025-06-21T16:14:52.593Z</time>
			</trkpt>
			<trkpt lat="51.72687" lon="7.24709">
				<ele>51.81</ele>
				<time>2025-06-21T16:14:54.166Z</time>
			</trkpt>
			<trkpt lat="51.72683" lon="7.24683">
				<ele>50.19</ele>
				<time>2025-06-21T16:14:55.473Z</time>
			</trkpt>
			<trkpt lat="51.72652" lon="7.24577">
				<ele>43.89</ele>
				<time>2025-06-21T16:15:01.155Z</time>
			</trkpt>
			<trkpt lat="51.72648" lon="7.24549">
				<ele>43.4</ele>
				<time>2025-06-21T16:15:02.539Z</time>
			</trkpt>
			<trkpt lat="51.72647" lon="7.24514">
				<ele>43.63</ele>
				<time>2025-06-21T16:15:04.221Z</time>
			</trkpt>
			<trkpt lat="51.72653" lon="7.24477">
				<ele>44.83</ele>
				<time>2025-06-21T16:15:06.051Z</time>
			</trkpt>
			<trkpt lat="51.7266" lon="7.24453">
				<ele>46.23</ele>
				<time>2025-06-21T16:15:07.316Z</time>
			</trkpt>
			<trkpt lat="51.72676" lon="7.24423">
				<ele>48</ele>
				<time>2025-06-21T16:15:09.199Z</time>
			</trkpt>
			<trkpt lat="51.72696" lon="7.24401">
				<ele>50.13</ele>
				<time>2025-06-21T16:15:11.050Z</time>
			</trkpt>
			<trkpt lat="51.72732" lon="7.24383">
				<ele>51.2</ele>
				<time>2025-06-21T16:15:13.918Z</time>
			</trkpt>
			<trkpt lat="51.72769" lon="7.24372">
				<ele>51.87</ele>
				<time>2025-06-21T16:15:16.764Z</time>
			</trkpt>
			<trkpt lat="51.72833" lon="7.24353">
				<ele>51</ele>
				<time>2025-06-21T16:15:21.644Z</time>
			</trkpt>
			<trkpt lat="51.73294" lon="7.24203">
				<ele>52.43</ele>
				<time>2025-06-21T16:15:55.255Z</time>
			</trkpt>
			<trkpt lat="51.73345" lon="7.24188">
				<ele>51.57</ele>
				<time>2025-06-21T16:15:58.770Z</time>
			</trkpt>
			<trkpt lat="51.73352" lon="7.24181">
				<ele>51.3</ele>
				<time>2025-06-21T16:15:59.325Z</time>
			</trkpt>
			<trkpt lat="51.73357" lon="7.2417">
				<ele>51.13</ele>
				<time>2025-06-21T16:15:59.893Z</time>
			</trkpt>
			<trkpt lat="51.73385" lon="7.24181">
				<ele>49.72</ele>
				<time>2025-06-21T16:16:01.823Z</time>
			</trkpt>
			<trkpt lat="51.73414" lon="7.24189">
				<ele>48.9</ele>
				<time>2025-06-21T16:16:03.780Z</time>
			</trkpt>
			<trkpt lat="51.7348" lon="7.24198">
				<ele>47.71</ele>
				<time>2025-06-21T16:16:08.143Z</time>
			</trkpt>
			<trkpt lat="51.74111" lon="7.24247">
				<ele>53</ele>
				<time>2025-06-21T16:16:47.935Z</time>
			</trkpt>
			<trkpt lat="51.74178" lon="7.2425">
				<ele>57.86</ele>
				<time>2025-06-21T16:16:52.102Z</time>
			</trkpt>
			<trkpt lat="51.74244" lon="7.24245">
				<ele>59</ele>
				<time>2025-06-21T16:16:56.224Z</time>
			</trkpt>
			<trkpt lat="51.7448" lon="7.24196">
				<ele>55.61</ele>
				<time>2025-06-21T16:17:11.302Z</time>
			</trkpt>
			<trkpt lat="51.74506" lon="7.24193">
				<ele>54.78</ele>
				<time>2025-06-21T16:17:12.985Z</time>
			</trkpt>
			<trkpt lat="51.74546" lon="7.24196">
				<ele>52.55</ele>
				<time>2025-06-21T16:17:15.584Z</time>
			</trkpt>
			<trkpt lat="51.74575" lon="7.24203">
				<ele>51.67</ele>
				<time>2025-06-21T16:17:17.500Z</time>
			</trkpt>
			<trkpt lat="51.74612" lon="7.24221">
				<ele>50.82</ele>
				<time>2025-06-21T16:17:20.041Z</time>
			</trkpt>
			<trkpt lat="51.74673" lon="7.24262">
				<ele>45.52</ele>
				<time>2025-06-21T16:17:24.435Z</time>
			</trkpt>
			<trkpt lat="51.74706" lon="7.24277">
				<ele>45.11</ele>
				<time>2025-06-21T16:17:26.740Z</time>
			</trkpt>
			<trkpt lat="51.74741" lon="7.24289">
				<ele>43.34</ele>
				<time>2025-06-21T16:17:29.166Z</time>
			</trkpt>
			<trkpt lat="51.74884" lon="7.2434">
				<ele>46.08</ele>
				<time>2025-06-21T16:17:39.331Z</time>
			</trkpt>
			<trkpt lat="51.74921" lon="7.24345">
				<ele>47.16</ele>
				<time>2025-06-21T16:17:41.974Z</time>
			</trkpt>
			<trkpt lat="51.7495" lon="7.24343">
				<ele>48.66</ele>
				<time>2025-06-21T16:17:44.061Z</time>
			</trkpt>
			<trkpt lat="51.7498" lon="7.24335">
				<ele>51.89</ele>
				<time>2025-06-21T16:17:46.266Z</time>
			</trkpt>
			<trkpt lat="51.75007" lon="7.24322">
				<ele>53.14</ele>
				<time>2025-06-21T16:17:48.328Z</time>
			</trkpt>
			<trkpt lat="51.75066" lon="7.24282">
				<ele>53.09</ele>
				<time>2025-06-21T16:17:53.079Z</time>
			</trkpt>
			<trkpt lat="51.75155" lon="7.24226">
				<ele>57.58</ele>
				<time>2025-06-21T16:18:00.360Z</time>
			</trkpt>
			<trkpt lat="51.75531" lon="7.23993">
				<ele>54.66</ele>
				<time>2025-06-21T16:18:33.980Z</time>
			</trkpt>
			<trkpt lat="51.7571" lon="7.23879">
				<ele>53.25</ele>
				<time>2025-06-21T16:18:52.013Z</time>
			</trkpt>
			<trkpt lat="51.75782" lon="7.2382">
				<ele>51.72</ele>
				<time>2025-06-21T16:19:00.017Z</time>
			</trkpt>
			<trkpt lat="51.75849" lon="7.23753">
				<ele>52.71</ele>
				<time>2025-06-21T16:19:08.095Z</time>
			</trkpt>
			<trkpt lat="51.75919" lon="7.2369">
				<ele>53.89</ele>
				<time>2025-06-21T16:19:16.590Z</time>
			</trkpt>
			<trkpt lat="51.75991" lon="7.23636">
				<ele>53.7</ele>
				<time>2025-06-21T16:19:25.298Z</time>
			</trkpt>
			<trkpt lat="51.76071" lon="7.23591">
				<ele>55.82</ele>
				<time>2025-06-21T16:19:34.923Z</time>
			</trkpt>
			<trkpt lat="51.76155" lon="7.23561">
				<ele>57.4</ele>
				<time>2025-06-21T16:19:45.063Z</time>
			</trkpt>
			<trkpt lat="51.76235" lon="7.23542">
				<ele>57.47</ele>
				<time>2025-06-21T16:19:54.944Z</time>
			</trkpt>
			<trkpt lat="51.76316" lon="7.23533">
				<ele>57.69</ele>
				<time>2025-06-21T16:20:05.218Z</time>
			</trkpt>
			<trkpt lat="51.76418" lon="7.23541">
				<ele>51.36</ele>
				<time>2025-06-21T16:20:18.662Z</time>
			</trkpt>
			<trkpt lat="51.76485" lon="7.2355">
				<ele>50.22</ele>
				<time>2025-06-21T16:20:27.841Z</time>
			</trkpt>
			<trkpt lat="51.76464" lon="7.23447">
				<ele>53</ele>
				<time>2025-06-21T16:20:37.269Z</time>
			</trkpt>
			<trkpt lat="51.76447" lon="7.23332">
				<ele>51.14</ele>
				<time>2025-06-21T16:20:47.810Z</time>
			</trkpt>
			<trkpt lat="51.76432" lon="7.23168">
				<ele>52.54</ele>
				<time>2025-06-21T16:21:02.917Z</time>
			</trkpt>
			<trkpt lat="51.76429" lon="7.23127">
				<ele>53.68</ele>
				<time>2025-06-21T16:21:06.718Z</time>
			</trkpt>
			<trkpt lat="51.7643" lon="7.23094">
				<ele>53.69</ele>
				<time>2025-06-21T16:21:09.767Z</time>
			</trkpt>
			<trkpt lat="51.76434" lon="7.23066">
				<ele>53.63</ele>
				<time>2025-06-21T16:21:12.422Z</time>
			</trkpt>
			<trkpt lat="51.7644" lon="7.23041">
				<ele>53.35</ele>
				<time>2025-06-21T16:21:14.902Z</time>
			</trkpt>
			<trkpt lat="51.76449" lon="7.23019">
				<ele>52.88</ele>
				<time>2025-06-21T16:21:17.341Z</time>
			</trkpt>
			<trkpt lat="51.76461" lon="7.22999">
				<ele>52.58</ele>
				<time>2025-06-21T16:21:19.919Z</time>
			</trkpt>
			<trkpt lat="51.76474" lon="7.22982">
				<ele>52.42</ele>
				<time>2025-06-21T16:21:22.418Z</time>
			</trkpt>
			<trkpt lat="51.76495" lon="7.22959">
				<ele>52.46</ele>
				<time>2025-06-21T16:21:26.207Z</time>
			</trkpt>
			<trkpt lat="51.76521" lon="7.22937">
				<ele>50.22</ele>
				<time>2025-06-21T16:21:30.582Z</time>
			</trkpt>
			<trkpt lat="51.76573" lon="7.22898">
				<ele>50.65</ele>
				<time>2025-06-21T16:21:39.084Z</time>
			</trkpt>
			<trkpt lat="51.76608" lon="7.2288">
				<ele>49.82</ele>
				<time>2025-06-21T16:21:44.489Z</time>
			</trkpt>
			<trkpt lat="51.76677" lon="7.22854">
				<ele>46.86</ele>
				<time>2025-06-21T16:21:54.780Z</time>
			</trkpt>
			<trkpt lat="51.76701" lon="7.22849">
				<ele>47</ele>
				<time>2025-06-21T16:21:58.245Z</time>
			</trkpt>
			<trkpt lat="51.7695" lon="7.22835">
				<ele>44.29</ele>
				<time>2025-06-21T16:22:31.724Z</time>
			</trkpt>
			<trkpt lat="51.76987" lon="7.22866">
				<ele>45.65</ele>
				<time>2025-06-21T16:22:36.815Z</time>
			</trkpt>
			<trkpt lat="51.77001" lon="7.22872">
				<ele>45.48</ele>
				<time>2025-06-21T16:22:38.542Z</time>
			</trkpt>
			<trkpt lat="51.77015" lon="7.2287">
				<ele>45.91</ele>
				<time>2025-06-21T16:22:40.196Z</time>
			</trkpt>
			<trkpt lat="51.77031" lon="7.22856">
				<ele>46</ele>
				<time>2025-06-21T16:22:42.306Z</time>
			</trkpt>
			<trkpt lat="51.77043" lon="7.2284">
				<ele>46</ele>
				<time>2025-06-21T16:22:44.080Z</time>
			</trkpt>
			<trkpt lat="51.77174" lon="7.22657">
				<ele>48</ele>
				<time>2025-06-21T16:23:01.768Z</time>
			</trkpt>
			<trkpt lat="51.77182" lon="7.2264">
				<ele>48</ele>
				<time>2025-06-21T16:23:02.947Z</time>
			</trkpt>
			<trkpt lat="51.77185" lon="7.22617">
				<ele>48</ele>
				<time>2025-06-21T16:23:04.215Z</time>
			</trkpt>
			<trkpt lat="51.77193" lon="7.22347">
				<ele>49.9</ele>
				<time>2025-06-21T16:23:16.312Z</time>
			</trkpt>
			<trkpt lat="51.7719" lon="7.22175">
				<ele>50</ele>
				<time>2025-06-21T16:23:23.782Z</time>
			</trkpt>
			<trkpt lat="51.77195" lon="7.2212">
				<ele>50</ele>
				<time>2025-06-21T16:23:29.267Z</time>
			</trkpt>
			<trkpt lat="51.77198" lon="7.22104">
				<ele>50</ele>
				<time>2025-06-21T16:23:31.490Z</time>
			</trkpt>
			<trkpt lat="51.77206" lon="7.22106">
				<ele>50</ele>
				<time>2025-06-21T16:23:33.447Z</time>
			</trkpt>
			<trkpt lat="51.77212" lon="7.22098">
				<ele>50</ele>
				<time>2025-06-21T16:23:35.520Z</time>
			</trkpt>
			<trkpt lat="51.77212" lon="7.22086">
				<ele>50</ele>
				<time>2025-06-21T16:23:37.685Z</time>
			</trkpt>
			<trkpt lat="51.77207" lon="7.22077">
				<ele>50</ele>
				<time>2025-06-21T16:23:40.056Z</time>
			</trkpt>
			<trkpt lat="51.77213" lon="7.22059">
				<ele>50</ele>
				<time>2025-06-21T16:23:44.453Z</time>
			</trkpt>
			<trkpt lat="51.77282" lon="7.21987">
				<ele>51.96</ele>
				<time>2025-06-21T16:24:19.574Z</time>
			</trkpt>
			<trkpt lat="51.77306" lon="7.2197">
				<ele>53.08</ele>
				<time>2025-06-21T16:24:30.880Z</time>
			</trkpt>
			<trkpt lat="51.77321" lon="7.21846">
				<ele>54.59</ele>
				<time>2025-06-21T16:24:56.527Z</time>
			</trkpt>
			<trkpt lat="51.77347" lon="7.21775">
				<ele>57.03</ele>
				<time>2025-06-21T16:25:07.623Z</time>
			</trkpt>
			<trkpt lat="51.77375" lon="7.21722">
				<ele>59.03</ele>
				<time>2025-06-21T16:25:15.493Z</time>
			</trkpt>
			<trkpt lat="51.77387" lon="7.21714">
				<ele>60.18</ele>
				<time>2025-06-21T16:25:17.816Z</time>
			</trkpt>
			<trkpt lat="51.77388" lon="7.21699">
				<ele>60.8</ele>
				<time>2025-06-21T16:25:19.514Z</time>
			</trkpt>
			<trkpt lat="51.77392" lon="7.21679">
				<ele>61</ele>
				<time>2025-06-21T16:25:21.944Z</time>
			</trkpt>
			<trkpt lat="51.77399" lon="7.21661">
				<ele>60.88</ele>
				<time>2025-06-21T16:25:24.506Z</time>
			</trkpt>
			<trkpt lat="51.77429" lon="7.216">
				<ele>60.7</ele>
				<time>2025-06-21T16:25:34.702Z</time>
			</trkpt>
			<trkpt lat="51.77465" lon="7.21546">
				<ele>61.67</ele>
				<time>2025-06-21T16:25:46.052Z</time>
			</trkpt>
			<trkpt lat="51.77538" lon="7.21469">
				<ele>60.61</ele>
				<time>2025-06-21T16:26:07.183Z</time>
			</trkpt>
			<trkpt lat="51.77558" lon="7.21453">
				<ele>60.78</ele>
				<time>2025-06-21T16:26:12.546Z</time>
			</trkpt>
			<trkpt lat="51.77581" lon="7.21434">
				<ele>60.94</ele>
				<time>2025-06-21T16:26:18.621Z</time>
			</trkpt>
			<trkpt lat="51.77617" lon="7.21413">
				<ele>61</ele>
				<time>2025-06-21T16:26:27.269Z</time>
			</trkpt>
			<trkpt lat="51.77644" lon="7.21409">
				<ele>60.8</ele>
				<time>2025-06-21T16:26:33.114Z</time>
			</trkpt>
			<trkpt lat="51.7767" lon="7.21408">
				<ele>60</ele>
				<time>2025-06-21T16:26:38.487Z</time>
			</trkpt>
			<trkpt lat="51.77685" lon="7.21404">
				<ele>60</ele>
				<time>2025-06-21T16:26:41.516Z</time>
			</trkpt>
			<trkpt lat="51.77702" lon="7.21395">
				<ele>60.3</ele>
				<time>2025-06-21T16:26:44.972Z</time>
			</trkpt>
			<trkpt lat="51.77723" lon="7.2138">
				<ele>61</ele>
				<time>2025-06-21T16:26:49.228Z</time>
			</trkpt>
			<trkpt lat="51.77772" lon="7.2133">
				<ele>61.09</ele>
				<time>2025-06-21T16:26:59.019Z</time>
			</trkpt>
			<trkpt lat="51.77786" lon="7.21321">
				<ele>61.43</ele>
				<time>2025-06-21T16:27:01.329Z</time>
			</trkpt>
			<trkpt lat="51.77809" lon="7.21319">
				<ele>61.5</ele>
				<time>2025-06-21T16:27:04.663Z</time>
			</trkpt>
			<trkpt lat="51.77831" lon="7.21325">
				<ele>61.27</ele>
				<time>2025-06-21T16:27:07.657Z</time>
			</trkpt>
			<trkpt lat="51.7791" lon="7.21359">
				<ele>59.27</ele>
				<time>2025-06-21T16:27:16.522Z</time>
			</trkpt>
			<trkpt lat="51.77913" lon="7.21314">
				<ele>60.79</ele>
				<time>2025-06-21T16:27:18.749Z</time>
			</trkpt>
			<trkpt lat="51.77921" lon="7.21235">
				<ele>61.83</ele>
				<time>2025-06-21T16:27:21.637Z</time>
			</trkpt>
			<trkpt lat="51.77928" lon="7.21177">
				<ele>62.57</ele>
				<time>2025-06-21T16:27:22.928Z</time>
			</trkpt>
			<trkpt lat="51.77954" lon="7.21023">
				<ele>64.85</ele>
				<time>2025-06-21T16:27:23.017Z</time>
			</trkpt>
			<trkpt lat="51.77992" lon="7.20862">
				<ele>63.24</ele>
				<time>2025-06-21T16:27:17.904Z</time>
			</trkpt>
			<trkpt lat="51.78137" lon="7.20272">
				<ele>65.73</ele>
				<time>2025-06-21T16:26:20.369Z</time>
			</trkpt>
			<trkpt lat="51.78255" lon="7.19788">
				<ele>74.47</ele>
				<time>2025-06-21T16:25:00.686Z</time>
			</trkpt>
			<trkpt lat="51.78275" lon="7.19702">
				<ele>74.06</ele>
				<time>2025-06-21T16:24:44.697Z</time>
			</trkpt>
			<trkpt lat="51.78291" lon="7.19612">
				<ele>75.97</ele>
				<time>2025-06-21T16:24:28.005Z</time>
			</trkpt>
			<trkpt lat="51.78299" lon="7.19536">
				<ele>78.86</ele>
				<time>2025-06-21T16:24:14.021Z</time>
			</trkpt>
			<trkpt lat="51.78303" lon="7.19467">
				<ele>81.1</ele>
				<time>2025-06-21T16:24:01.301Z</time>
			</trkpt>
			<trkpt lat="51.78302" lon="7.19363">
				<ele>81.17</ele>
				<time>2025-06-21T16:23:42.019Z</time>
			</trkpt>
			<trkpt lat="51.783" lon="7.1931">
				<ele>81.03</ele>
				<time>2025-06-21T16:23:32.117Z</time>
			</trkpt>
			<trkpt lat="51.78276" lon="7.18995">
				<ele>82.82</ele>
				<time>2025-06-21T16:22:33.012Z</time>
			</trkpt>
			<trkpt lat="51.78273" lon="7.18901">
				<ele>80.15</ele>
				<time>2025-06-21T16:22:15.799Z</time>
			</trkpt>
			<trkpt lat="51.78273" lon="7.18827">
				<ele>81.18</ele>
				<time>2025-06-21T16:22:02.465Z</time>
			</trkpt>
			<trkpt lat="51.78278" lon="7.18717">
				<ele>78.6</ele>
				<time>2025-06-21T16:21:43.007Z</time>
			</trkpt>
			<trkpt lat="51.78287" lon="7.18616">
				<ele>73.48</ele>
				<time>2025-06-21T16:21:25.547Z</time>
			</trkpt>
			<trkpt lat="51.78319" lon="7.18379">
				<ele>74.85</ele>
				<time>2025-06-21T16:20:46.748Z</time>
			</trkpt>
			<trkpt lat="51.78329" lon="7.18289">
				<ele>74.26</ele>
				<time>2025-06-21T16:20:33.325Z</time>
			</trkpt>
			<trkpt lat="51.78336" lon="7.18207">
				<ele>72.25</ele>
				<time>2025-06-21T16:20:21.839Z</time>
			</trkpt>
			<trkpt lat="51.78338" lon="7.18157">
				<ele>70.48</ele>
				<time>2025-06-21T16:20:15.218Z</time>
			</trkpt>
			<trkpt lat="51.78336" lon="7.18048">
				<ele>67.9</ele>
				<time>2025-06-21T16:20:01.737Z</time>
			</trkpt>
			<trkpt lat="51.78334" lon="7.18017">
				<ele>68</ele>
				<time>2025-06-21T16:19:58.132Z</time>
			</trkpt>
			<trkpt lat="51.78318" lon="7.17888">
				<ele>66.56</ele>
				<time>2025-06-21T16:19:44.219Z</time>
			</trkpt>
			<trkpt lat="51.78307" lon="7.17836">
				<ele>67.93</ele>
				<time>2025-06-21T16:19:39.069Z</time>
			</trkpt>
			<trkpt lat="51.78283" lon="7.17744">
				<ele>70</ele>
				<time>2025-06-21T16:19:30.781Z</time>
			</trkpt>
			<trkpt lat="51.78259" lon="7.17664">
				<ele>70.72</ele>
				<time>2025-06-21T16:19:24.628Z</time>
			</trkpt>
			<trkpt lat="51.78169" lon="7.17387">
				<ele>68.7</ele>
				<time>2025-06-21T16:19:13.172Z</time>
			</trkpt>
			<trkpt lat="51.78016" lon="7.16901">
				<ele>65.18</ele>
				<time>2025-06-21T16:19:38.313Z</time>
			</trkpt>
			<trkpt lat="51.77982" lon="7.16787">
				<ele>64</ele>
				<time>2025-06-21T16:19:53.692Z</time>
			</trkpt>
			<trkpt lat="51.77962" lon="7.16712">
				<ele>64.35</ele>
				<time>2025-06-21T16:20:05.731Z</time>
			</trkpt>
			<trkpt lat="51.77946" lon="7.16651">
				<ele>66.55</ele>
				<time>2025-06-21T16:20:16.760Z</time>
			</trkpt>
			<trkpt lat="51.77925" lon="7.16538">
				<ele>69.64</ele>
				<time>2025-06-21T16:20:39.294Z</time>
			</trkpt>
			<trkpt lat="51.77912" lon="7.16442">
				<ele>72.72</ele>
				<time>2025-06-21T16:21:00.987Z</time>
			</trkpt>
			<trkpt lat="51.77892" lon="7.16215">
				<ele>75.25</ele>
				<time>2025-06-21T16:22:02.477Z</time>
			</trkpt>
			<trkpt lat="51.77885" lon="7.16157">
				<ele>76</ele>
				<time>2025-06-21T16:22:20.898Z</time>
			</trkpt>
			<trkpt lat="51.77883" lon="7.16132">
				<ele>76</ele>
				<time>2025-06-21T16:22:29.087Z</time>
			</trkpt>
			<trkpt lat="51.77883" lon="7.16097">
				<ele>75.52</ele>
				<time>2025-06-21T16:22:40.791Z</time>
			</trkpt>
			<trkpt lat="51.77886" lon="7.16059">
				<ele>75</ele>
				<time>2025-06-21T16:22:54.049Z</time>
			</trkpt>
			<trkpt lat="51.77894" lon="7.16022">
				<ele>74.8</ele>
				<time>2025-06-21T16:23:08.104Z</time>
			</trkpt>
			<trkpt lat="51.77905" lon="7.15987">
				<ele>74.39</ele>
				<time>2025-06-21T16:23:22.685Z</time>
			</trkpt>
			<trkpt lat="51.77918" lon="7.1596">
				<ele>73.93</ele>
				<time>2025-06-21T16:23:35.806Z</time>
			</trkpt>
			<trkpt lat="51.77943" lon="7.15896">
				<ele>73.04</ele>
				<time>2025-06-21T16:24:06.229Z</time>
			</trkpt>
			<trkpt lat="51.77961" lon="7.1583">
				<ele>70.73</ele>
				<time>2025-06-21T16:24:37.036Z</time>
			</trkpt>
			<trkpt lat="51.77967" lon="7.158">
				<ele>69.5</ele>
				<time>2025-06-21T16:24:51.069Z</time>
			</trkpt>
			<trkpt lat="51.77975" lon="7.15748">
				<ele>67.86</ele>
				<time>2025-06-21T16:25:15.720Z</time>
			</trkpt>
			<trkpt lat="51.77981" lon="7.15685">
				<ele>68</ele>
				<time>2025-06-21T16:25:46.377Z</time>
			</trkpt>
			<trkpt lat="51.77982" lon="7.15646">
				<ele>68.27</ele>
				<time>2025-06-21T16:26:05.875Z</time>
			</trkpt>
			<trkpt lat="51.77981" lon="7.15608">
				<ele>68.36</ele>
				<time>2025-06-21T16:26:25.411Z</time>
			</trkpt>
			<trkpt lat="51.77975" lon="7.15541">
				<ele>68.78</ele>
				<time>2025-06-21T16:27:01.510Z</time>
			</trkpt>
			<trkpt lat="51.77971" lon="7.15511">
				<ele>69.56</ele>
				<time>2025-06-21T16:27:18.440Z</time>
			</trkpt>
			<trkpt lat="51.77935" lon="7.15345">
				<ele>69.66</ele>
				<time>2025-06-21T16:29:02.457Z</time>
			</trkpt>
			<trkpt lat="51.77924" lon="7.15293">
				<ele>69.28</ele>
				<time>2025-06-21T16:29:37.443Z</time>
			</trkpt>
			<trkpt lat="51.77915" lon="7.15239">
				<ele>69.89</ele>
				<time>2025-06-21T16:30:14.291Z</time>
			</trkpt>
			<trkpt lat="51.77898" lon="7.15106">
				<ele>71.66</ele>
				<time>2025-06-21T16:31:49.104Z</time>
			</trkpt>
			<trkpt lat="51.77884" lon="7.14958">
				<ele>70.92</ele>
				<time>2025-06-21T16:33:42.617Z</time>
			</trkpt>
			<trkpt lat="51.77872" lon="7.14957">
				<ele>70.72</ele>
				<time>2025-06-21T16:33:58.048Z</time>
			</trkpt>
			<trkpt lat="51.77875" lon="7.14985">
				<ele>70.88</ele>
				<time>2025-06-21T16:34:20.922Z</time>
			</trkpt>
		</trkseg>
	</trk>
</gpx>